<?xml version="1.0" encoding="UTF-8" standalone="no" ?>
<gpx xmlns="http://www.topografix.com/GPX/1/1" xmlns:xsi="http://www.w3.org/2001/XMLSchema-instance" xsi:schemaLocation="http://www.topografix.com/GPX/1/1 http://www.topografix.com/GPX/1/1/gpx.xsd" version="1.1" creator="VisuGPX - https://www.visugpx.com">
  <metadata>
    <name>83-Ma-Lorgues</name>
    <desc><![CDATA[83-Ma-Lorgues : Babadié             ]]></desc>
  </metadata>
  <trk>
    <name><![CDATA[2018-01-30-Ma-lorgues]]></name>
    <trkseg>
      <trkpt lat="43.5431" lon="6.30028">
        <ele>409.3</ele>
        <time>2018-01-30T12:46:58Z</time>
      </trkpt>
      <trkpt lat="43.5431" lon="6.30028">
        <ele>409.3</ele>
        <time>2018-01-30T12:46:59Z</time>
      </trkpt>
      <trkpt lat="43.54319" lon="6.30026">
        <ele>409.3</ele>
        <time>2018-01-30T12:47:51Z</time>
      </trkpt>
      <trkpt lat="43.54311" lon="6.30032">
        <ele>410.7</ele>
        <time>2018-01-30T12:54:41Z</time>
      </trkpt>
      <trkpt lat="43.54302" lon="6.30032">
        <ele>410.7</ele>
        <time>2018-01-30T12:54:59Z</time>
      </trkpt>
      <trkpt lat="43.5431" lon="6.30027">
        <ele>410.6</ele>
        <time>2018-01-30T12:55:39Z</time>
      </trkpt>
      <trkpt lat="43.54317" lon="6.30019">
        <ele>410.7</ele>
        <time>2018-01-30T12:55:50Z</time>
      </trkpt>
      <trkpt lat="43.54326" lon="6.30012">
        <ele>410.6</ele>
        <time>2018-01-30T12:55:57Z</time>
      </trkpt>
      <trkpt lat="43.54334" lon="6.30007">
        <ele>410.4</ele>
        <time>2018-01-30T12:56:02Z</time>
      </trkpt>
      <trkpt lat="43.54341" lon="6.29998">
        <ele>410.3</ele>
        <time>2018-01-30T12:56:08Z</time>
      </trkpt>
      <trkpt lat="43.54348" lon="6.29988">
        <ele>410.5</ele>
        <time>2018-01-30T12:56:16Z</time>
      </trkpt>
      <trkpt lat="43.54354" lon="6.29977">
        <ele>410.6</ele>
        <time>2018-01-30T12:56:22Z</time>
      </trkpt>
      <trkpt lat="43.54361" lon="6.29967">
        <ele>410.8</ele>
        <time>2018-01-30T12:56:29Z</time>
      </trkpt>
      <trkpt lat="43.54368" lon="6.29958">
        <ele>410.5</ele>
        <time>2018-01-30T12:56:35Z</time>
      </trkpt>
      <trkpt lat="43.54375" lon="6.2995">
        <ele>410.8</ele>
        <time>2018-01-30T12:56:41Z</time>
      </trkpt>
      <trkpt lat="43.54384" lon="6.29942">
        <ele>411.2</ele>
        <time>2018-01-30T12:56:47Z</time>
      </trkpt>
      <trkpt lat="43.54392" lon="6.29934">
        <ele>411.5</ele>
        <time>2018-01-30T12:56:53Z</time>
      </trkpt>
      <trkpt lat="43.54399" lon="6.29924">
        <ele>411.6</ele>
        <time>2018-01-30T12:57:00Z</time>
      </trkpt>
      <trkpt lat="43.54406" lon="6.29915">
        <ele>411.6</ele>
        <time>2018-01-30T12:57:07Z</time>
      </trkpt>
      <trkpt lat="43.54412" lon="6.29905">
        <ele>411.7</ele>
        <time>2018-01-30T12:57:14Z</time>
      </trkpt>
      <trkpt lat="43.54418" lon="6.29894">
        <ele>411.9</ele>
        <time>2018-01-30T12:57:21Z</time>
      </trkpt>
      <trkpt lat="43.54423" lon="6.29884">
        <ele>412.4</ele>
        <time>2018-01-30T12:57:28Z</time>
      </trkpt>
      <trkpt lat="43.54428" lon="6.29872">
        <ele>412.6</ele>
        <time>2018-01-30T12:57:35Z</time>
      </trkpt>
      <trkpt lat="43.54432" lon="6.29861">
        <ele>412.9</ele>
        <time>2018-01-30T12:57:42Z</time>
      </trkpt>
      <trkpt lat="43.54436" lon="6.29848">
        <ele>413.4</ele>
        <time>2018-01-30T12:57:49Z</time>
      </trkpt>
      <trkpt lat="43.54441" lon="6.29836">
        <ele>412.9</ele>
        <time>2018-01-30T12:57:56Z</time>
      </trkpt>
      <trkpt lat="43.54446" lon="6.29824">
        <ele>412.9</ele>
        <time>2018-01-30T12:58:03Z</time>
      </trkpt>
      <trkpt lat="43.54452" lon="6.29813">
        <ele>413.2</ele>
        <time>2018-01-30T12:58:10Z</time>
      </trkpt>
      <trkpt lat="43.54457" lon="6.29801">
        <ele>413.4</ele>
        <time>2018-01-30T12:58:17Z</time>
      </trkpt>
      <trkpt lat="43.54462" lon="6.2979">
        <ele>413.4</ele>
        <time>2018-01-30T12:58:24Z</time>
      </trkpt>
      <trkpt lat="43.54468" lon="6.29781">
        <ele>413.2</ele>
        <time>2018-01-30T12:58:30Z</time>
      </trkpt>
      <trkpt lat="43.54476" lon="6.29772">
        <ele>413.1</ele>
        <time>2018-01-30T12:58:36Z</time>
      </trkpt>
      <trkpt lat="43.54481" lon="6.29761">
        <ele>413.2</ele>
        <time>2018-01-30T12:58:43Z</time>
      </trkpt>
      <trkpt lat="43.54487" lon="6.29752">
        <ele>413.2</ele>
        <time>2018-01-30T12:58:49Z</time>
      </trkpt>
      <trkpt lat="43.54495" lon="6.29742">
        <ele>413.3</ele>
        <time>2018-01-30T12:58:56Z</time>
      </trkpt>
      <trkpt lat="43.54504" lon="6.29734">
        <ele>413.1</ele>
        <time>2018-01-30T12:59:03Z</time>
      </trkpt>
      <trkpt lat="43.54513" lon="6.29729">
        <ele>413.3</ele>
        <time>2018-01-30T12:59:10Z</time>
      </trkpt>
      <trkpt lat="43.54522" lon="6.29725">
        <ele>413.2</ele>
        <time>2018-01-30T12:59:16Z</time>
      </trkpt>
      <trkpt lat="43.5453" lon="6.2972">
        <ele>413</ele>
        <time>2018-01-30T12:59:21Z</time>
      </trkpt>
      <trkpt lat="43.54539" lon="6.29714">
        <ele>412.4</ele>
        <time>2018-01-30T12:59:27Z</time>
      </trkpt>
      <trkpt lat="43.54548" lon="6.29709">
        <ele>412.8</ele>
        <time>2018-01-30T12:59:33Z</time>
      </trkpt>
      <trkpt lat="43.54557" lon="6.29702">
        <ele>413</ele>
        <time>2018-01-30T12:59:41Z</time>
      </trkpt>
      <trkpt lat="43.54567" lon="6.29699">
        <ele>413.4</ele>
        <time>2018-01-30T12:59:48Z</time>
      </trkpt>
      <trkpt lat="43.54576" lon="6.29695">
        <ele>413.8</ele>
        <time>2018-01-30T12:59:55Z</time>
      </trkpt>
      <trkpt lat="43.54585" lon="6.29689">
        <ele>413.9</ele>
        <time>2018-01-30T13:00:01Z</time>
      </trkpt>
      <trkpt lat="43.54594" lon="6.29682">
        <ele>413.6</ele>
        <time>2018-01-30T13:00:07Z</time>
      </trkpt>
      <trkpt lat="43.54602" lon="6.29675">
        <ele>412.9</ele>
        <time>2018-01-30T13:00:15Z</time>
      </trkpt>
      <trkpt lat="43.54608" lon="6.29665">
        <ele>412</ele>
        <time>2018-01-30T13:00:22Z</time>
      </trkpt>
      <trkpt lat="43.54612" lon="6.29653">
        <ele>411.4</ele>
        <time>2018-01-30T13:00:28Z</time>
      </trkpt>
      <trkpt lat="43.54611" lon="6.29639">
        <ele>411</ele>
        <time>2018-01-30T13:00:39Z</time>
      </trkpt>
      <trkpt lat="43.54615" lon="6.29627">
        <ele>410.6</ele>
        <time>2018-01-30T13:00:44Z</time>
      </trkpt>
      <trkpt lat="43.54618" lon="6.29614">
        <ele>410.6</ele>
        <time>2018-01-30T13:00:50Z</time>
      </trkpt>
      <trkpt lat="43.54616" lon="6.29602">
        <ele>410.7</ele>
        <time>2018-01-30T13:00:57Z</time>
      </trkpt>
      <trkpt lat="43.54617" lon="6.29589">
        <ele>410.3</ele>
        <time>2018-01-30T13:01:05Z</time>
      </trkpt>
      <trkpt lat="43.54614" lon="6.29576">
        <ele>410.5</ele>
        <time>2018-01-30T13:01:11Z</time>
      </trkpt>
      <trkpt lat="43.54619" lon="6.29563">
        <ele>410.6</ele>
        <time>2018-01-30T13:01:17Z</time>
      </trkpt>
      <trkpt lat="43.5462" lon="6.2955">
        <ele>410.8</ele>
        <time>2018-01-30T13:01:26Z</time>
      </trkpt>
      <trkpt lat="43.54622" lon="6.29537">
        <ele>410.8</ele>
        <time>2018-01-30T13:01:32Z</time>
      </trkpt>
      <trkpt lat="43.54625" lon="6.29522">
        <ele>410.8</ele>
        <time>2018-01-30T13:01:38Z</time>
      </trkpt>
      <trkpt lat="43.5463" lon="6.2951">
        <ele>411</ele>
        <time>2018-01-30T13:01:44Z</time>
      </trkpt>
      <trkpt lat="43.54636" lon="6.295">
        <ele>411.4</ele>
        <time>2018-01-30T13:01:52Z</time>
      </trkpt>
      <trkpt lat="43.5464" lon="6.29489">
        <ele>411.7</ele>
        <time>2018-01-30T13:02:00Z</time>
      </trkpt>
      <trkpt lat="43.54645" lon="6.29478">
        <ele>412.2</ele>
        <time>2018-01-30T13:02:07Z</time>
      </trkpt>
      <trkpt lat="43.54653" lon="6.29469">
        <ele>412.3</ele>
        <time>2018-01-30T13:02:14Z</time>
      </trkpt>
      <trkpt lat="43.54658" lon="6.29457">
        <ele>412.6</ele>
        <time>2018-01-30T13:02:21Z</time>
      </trkpt>
      <trkpt lat="43.54665" lon="6.29449">
        <ele>412.9</ele>
        <time>2018-01-30T13:02:27Z</time>
      </trkpt>
      <trkpt lat="43.5467" lon="6.29438">
        <ele>413.3</ele>
        <time>2018-01-30T13:02:33Z</time>
      </trkpt>
      <trkpt lat="43.54678" lon="6.29428">
        <ele>413.8</ele>
        <time>2018-01-30T13:02:40Z</time>
      </trkpt>
      <trkpt lat="43.54682" lon="6.29417">
        <ele>414.2</ele>
        <time>2018-01-30T13:02:47Z</time>
      </trkpt>
      <trkpt lat="43.54687" lon="6.29406">
        <ele>414.5</ele>
        <time>2018-01-30T13:02:53Z</time>
      </trkpt>
      <trkpt lat="43.54693" lon="6.29395">
        <ele>414.9</ele>
        <time>2018-01-30T13:03:02Z</time>
      </trkpt>
      <trkpt lat="43.547" lon="6.29384">
        <ele>415.8</ele>
        <time>2018-01-30T13:03:09Z</time>
      </trkpt>
      <trkpt lat="43.54705" lon="6.29373">
        <ele>416.4</ele>
        <time>2018-01-30T13:03:15Z</time>
      </trkpt>
      <trkpt lat="43.54711" lon="6.29361">
        <ele>416.2</ele>
        <time>2018-01-30T13:03:21Z</time>
      </trkpt>
      <trkpt lat="43.54719" lon="6.29349">
        <ele>416</ele>
        <time>2018-01-30T13:03:28Z</time>
      </trkpt>
      <trkpt lat="43.54723" lon="6.29336">
        <ele>416.3</ele>
        <time>2018-01-30T13:03:36Z</time>
      </trkpt>
      <trkpt lat="43.54721" lon="6.29322">
        <ele>416.1</ele>
        <time>2018-01-30T13:03:43Z</time>
      </trkpt>
      <trkpt lat="43.54723" lon="6.29309">
        <ele>416.5</ele>
        <time>2018-01-30T13:03:51Z</time>
      </trkpt>
      <trkpt lat="43.54729" lon="6.29297">
        <ele>416.6</ele>
        <time>2018-01-30T13:03:57Z</time>
      </trkpt>
      <trkpt lat="43.54734" lon="6.29286">
        <ele>416.6</ele>
        <time>2018-01-30T13:04:03Z</time>
      </trkpt>
      <trkpt lat="43.54739" lon="6.29275">
        <ele>416.8</ele>
        <time>2018-01-30T13:04:10Z</time>
      </trkpt>
      <trkpt lat="43.54738" lon="6.29261">
        <ele>417.5</ele>
        <time>2018-01-30T13:04:18Z</time>
      </trkpt>
      <trkpt lat="43.54735" lon="6.29249">
        <ele>417.9</ele>
        <time>2018-01-30T13:04:25Z</time>
      </trkpt>
      <trkpt lat="43.54731" lon="6.29236">
        <ele>417.8</ele>
        <time>2018-01-30T13:04:32Z</time>
      </trkpt>
      <trkpt lat="43.54724" lon="6.29225">
        <ele>417.7</ele>
        <time>2018-01-30T13:04:40Z</time>
      </trkpt>
      <trkpt lat="43.5472" lon="6.29213">
        <ele>417.2</ele>
        <time>2018-01-30T13:04:49Z</time>
      </trkpt>
      <trkpt lat="43.54713" lon="6.29202">
        <ele>417.3</ele>
        <time>2018-01-30T13:04:57Z</time>
      </trkpt>
      <trkpt lat="43.54703" lon="6.29197">
        <ele>417.9</ele>
        <time>2018-01-30T13:05:03Z</time>
      </trkpt>
      <trkpt lat="43.54695" lon="6.2919">
        <ele>418.9</ele>
        <time>2018-01-30T13:05:10Z</time>
      </trkpt>
      <trkpt lat="43.54693" lon="6.29177">
        <ele>419.4</ele>
        <time>2018-01-30T13:05:18Z</time>
      </trkpt>
      <trkpt lat="43.54696" lon="6.29164">
        <ele>420.1</ele>
        <time>2018-01-30T13:05:25Z</time>
      </trkpt>
      <trkpt lat="43.54701" lon="6.29153">
        <ele>420.9</ele>
        <time>2018-01-30T13:05:35Z</time>
      </trkpt>
      <trkpt lat="43.54707" lon="6.29142">
        <ele>421.2</ele>
        <time>2018-01-30T13:05:42Z</time>
      </trkpt>
      <trkpt lat="43.54711" lon="6.2913">
        <ele>421.6</ele>
        <time>2018-01-30T13:05:56Z</time>
      </trkpt>
      <trkpt lat="43.5472" lon="6.29125">
        <ele>421</ele>
        <time>2018-01-30T13:06:12Z</time>
      </trkpt>
      <trkpt lat="43.54726" lon="6.29113">
        <ele>421.1</ele>
        <time>2018-01-30T13:06:19Z</time>
      </trkpt>
      <trkpt lat="43.54732" lon="6.29102">
        <ele>421.5</ele>
        <time>2018-01-30T13:06:28Z</time>
      </trkpt>
      <trkpt lat="43.54737" lon="6.29089">
        <ele>422</ele>
        <time>2018-01-30T13:06:35Z</time>
      </trkpt>
      <trkpt lat="43.54742" lon="6.29078">
        <ele>422.2</ele>
        <time>2018-01-30T13:06:43Z</time>
      </trkpt>
      <trkpt lat="43.54747" lon="6.29067">
        <ele>422.9</ele>
        <time>2018-01-30T13:06:52Z</time>
      </trkpt>
      <trkpt lat="43.54754" lon="6.29057">
        <ele>423.2</ele>
        <time>2018-01-30T13:06:59Z</time>
      </trkpt>
      <trkpt lat="43.5476" lon="6.29047">
        <ele>423.3</ele>
        <time>2018-01-30T13:07:05Z</time>
      </trkpt>
      <trkpt lat="43.54769" lon="6.29038">
        <ele>423</ele>
        <time>2018-01-30T13:07:12Z</time>
      </trkpt>
      <trkpt lat="43.54775" lon="6.29028">
        <ele>423.2</ele>
        <time>2018-01-30T13:07:19Z</time>
      </trkpt>
      <trkpt lat="43.54782" lon="6.29018">
        <ele>423.4</ele>
        <time>2018-01-30T13:07:27Z</time>
      </trkpt>
      <trkpt lat="43.54791" lon="6.29012">
        <ele>423.4</ele>
        <time>2018-01-30T13:07:33Z</time>
      </trkpt>
      <trkpt lat="43.54799" lon="6.29006">
        <ele>423.3</ele>
        <time>2018-01-30T13:07:39Z</time>
      </trkpt>
      <trkpt lat="43.54807" lon="6.28998">
        <ele>423.1</ele>
        <time>2018-01-30T13:07:46Z</time>
      </trkpt>
      <trkpt lat="43.54815" lon="6.2899">
        <ele>423.1</ele>
        <time>2018-01-30T13:07:53Z</time>
      </trkpt>
      <trkpt lat="43.54823" lon="6.28981">
        <ele>423.5</ele>
        <time>2018-01-30T13:08:01Z</time>
      </trkpt>
      <trkpt lat="43.54831" lon="6.28972">
        <ele>424</ele>
        <time>2018-01-30T13:08:09Z</time>
      </trkpt>
      <trkpt lat="43.54838" lon="6.28964">
        <ele>423.7</ele>
        <time>2018-01-30T13:08:16Z</time>
      </trkpt>
      <trkpt lat="43.54845" lon="6.28956">
        <ele>423.8</ele>
        <time>2018-01-30T13:08:23Z</time>
      </trkpt>
      <trkpt lat="43.54853" lon="6.28946">
        <ele>424.1</ele>
        <time>2018-01-30T13:08:30Z</time>
      </trkpt>
      <trkpt lat="43.54859" lon="6.28936">
        <ele>424.2</ele>
        <time>2018-01-30T13:08:36Z</time>
      </trkpt>
      <trkpt lat="43.54865" lon="6.28925">
        <ele>423.8</ele>
        <time>2018-01-30T13:08:43Z</time>
      </trkpt>
      <trkpt lat="43.5487" lon="6.28913">
        <ele>423.8</ele>
        <time>2018-01-30T13:08:50Z</time>
      </trkpt>
      <trkpt lat="43.54876" lon="6.28902">
        <ele>423.5</ele>
        <time>2018-01-30T13:08:57Z</time>
      </trkpt>
      <trkpt lat="43.5488" lon="6.2889">
        <ele>423.9</ele>
        <time>2018-01-30T13:09:04Z</time>
      </trkpt>
      <trkpt lat="43.54886" lon="6.2888">
        <ele>424.2</ele>
        <time>2018-01-30T13:09:10Z</time>
      </trkpt>
      <trkpt lat="43.54891" lon="6.28868">
        <ele>423.9</ele>
        <time>2018-01-30T13:09:17Z</time>
      </trkpt>
      <trkpt lat="43.54896" lon="6.28858">
        <ele>423.8</ele>
        <time>2018-01-30T13:09:23Z</time>
      </trkpt>
      <trkpt lat="43.54902" lon="6.28846">
        <ele>423.8</ele>
        <time>2018-01-30T13:09:29Z</time>
      </trkpt>
      <trkpt lat="43.54907" lon="6.28835">
        <ele>423.6</ele>
        <time>2018-01-30T13:09:35Z</time>
      </trkpt>
      <trkpt lat="43.54912" lon="6.28823">
        <ele>423.4</ele>
        <time>2018-01-30T13:09:42Z</time>
      </trkpt>
      <trkpt lat="43.54917" lon="6.28812">
        <ele>423</ele>
        <time>2018-01-30T13:09:48Z</time>
      </trkpt>
      <trkpt lat="43.54922" lon="6.288">
        <ele>422.7</ele>
        <time>2018-01-30T13:09:55Z</time>
      </trkpt>
      <trkpt lat="43.54924" lon="6.28787">
        <ele>422.3</ele>
        <time>2018-01-30T13:10:02Z</time>
      </trkpt>
      <trkpt lat="43.5493" lon="6.28776">
        <ele>421.7</ele>
        <time>2018-01-30T13:10:09Z</time>
      </trkpt>
      <trkpt lat="43.54936" lon="6.28765">
        <ele>421.6</ele>
        <time>2018-01-30T13:10:16Z</time>
      </trkpt>
      <trkpt lat="43.54944" lon="6.28759">
        <ele>422</ele>
        <time>2018-01-30T13:10:22Z</time>
      </trkpt>
      <trkpt lat="43.54952" lon="6.28751">
        <ele>422.2</ele>
        <time>2018-01-30T13:10:29Z</time>
      </trkpt>
      <trkpt lat="43.54956" lon="6.2874">
        <ele>422.2</ele>
        <time>2018-01-30T13:10:35Z</time>
      </trkpt>
      <trkpt lat="43.54961" lon="6.28729">
        <ele>422.3</ele>
        <time>2018-01-30T13:10:43Z</time>
      </trkpt>
      <trkpt lat="43.54967" lon="6.28719">
        <ele>422.1</ele>
        <time>2018-01-30T13:10:49Z</time>
      </trkpt>
      <trkpt lat="43.5497" lon="6.28707">
        <ele>422</ele>
        <time>2018-01-30T13:10:55Z</time>
      </trkpt>
      <trkpt lat="43.54974" lon="6.28695">
        <ele>421.6</ele>
        <time>2018-01-30T13:11:01Z</time>
      </trkpt>
      <trkpt lat="43.54979" lon="6.28683">
        <ele>421.8</ele>
        <time>2018-01-30T13:11:08Z</time>
      </trkpt>
      <trkpt lat="43.54986" lon="6.28672">
        <ele>421.6</ele>
        <time>2018-01-30T13:11:14Z</time>
      </trkpt>
      <trkpt lat="43.54992" lon="6.28662">
        <ele>421.1</ele>
        <time>2018-01-30T13:11:20Z</time>
      </trkpt>
      <trkpt lat="43.54997" lon="6.28651">
        <ele>420.8</ele>
        <time>2018-01-30T13:11:27Z</time>
      </trkpt>
      <trkpt lat="43.55004" lon="6.28642">
        <ele>420.9</ele>
        <time>2018-01-30T13:11:34Z</time>
      </trkpt>
      <trkpt lat="43.55007" lon="6.28629">
        <ele>420.7</ele>
        <time>2018-01-30T13:11:43Z</time>
      </trkpt>
      <trkpt lat="43.5501" lon="6.28615">
        <ele>420.1</ele>
        <time>2018-01-30T13:11:51Z</time>
      </trkpt>
      <trkpt lat="43.55014" lon="6.28604">
        <ele>419.8</ele>
        <time>2018-01-30T13:11:58Z</time>
      </trkpt>
      <trkpt lat="43.55023" lon="6.28596">
        <ele>419.9</ele>
        <time>2018-01-30T13:12:04Z</time>
      </trkpt>
      <trkpt lat="43.55029" lon="6.28587">
        <ele>420</ele>
        <time>2018-01-30T13:12:11Z</time>
      </trkpt>
      <trkpt lat="43.55034" lon="6.28574">
        <ele>420.1</ele>
        <time>2018-01-30T13:12:18Z</time>
      </trkpt>
      <trkpt lat="43.5504" lon="6.28565">
        <ele>419.6</ele>
        <time>2018-01-30T13:12:23Z</time>
      </trkpt>
      <trkpt lat="43.55048" lon="6.28557">
        <ele>419.9</ele>
        <time>2018-01-30T13:12:29Z</time>
      </trkpt>
      <trkpt lat="43.55054" lon="6.28546">
        <ele>419.8</ele>
        <time>2018-01-30T13:12:35Z</time>
      </trkpt>
      <trkpt lat="43.55059" lon="6.28535">
        <ele>419.9</ele>
        <time>2018-01-30T13:12:41Z</time>
      </trkpt>
      <trkpt lat="43.55063" lon="6.28522">
        <ele>419.5</ele>
        <time>2018-01-30T13:12:48Z</time>
      </trkpt>
      <trkpt lat="43.55066" lon="6.2851">
        <ele>419.3</ele>
        <time>2018-01-30T13:12:55Z</time>
      </trkpt>
      <trkpt lat="43.55068" lon="6.28498">
        <ele>419.4</ele>
        <time>2018-01-30T13:13:03Z</time>
      </trkpt>
      <trkpt lat="43.5507" lon="6.28486">
        <ele>419.4</ele>
        <time>2018-01-30T13:13:10Z</time>
      </trkpt>
      <trkpt lat="43.55073" lon="6.28473">
        <ele>419.4</ele>
        <time>2018-01-30T13:13:18Z</time>
      </trkpt>
      <trkpt lat="43.55077" lon="6.28461">
        <ele>419.4</ele>
        <time>2018-01-30T13:13:30Z</time>
      </trkpt>
      <trkpt lat="43.55071" lon="6.28452">
        <ele>419.2</ele>
        <time>2018-01-30T13:13:43Z</time>
      </trkpt>
      <trkpt lat="43.5507" lon="6.28438">
        <ele>419.1</ele>
        <time>2018-01-30T13:13:52Z</time>
      </trkpt>
      <trkpt lat="43.55072" lon="6.28424">
        <ele>419.3</ele>
        <time>2018-01-30T13:13:58Z</time>
      </trkpt>
      <trkpt lat="43.55072" lon="6.2841">
        <ele>419.4</ele>
        <time>2018-01-30T13:14:04Z</time>
      </trkpt>
      <trkpt lat="43.55068" lon="6.28398">
        <ele>419.7</ele>
        <time>2018-01-30T13:14:12Z</time>
      </trkpt>
      <trkpt lat="43.55065" lon="6.28385">
        <ele>419.6</ele>
        <time>2018-01-30T13:14:19Z</time>
      </trkpt>
      <trkpt lat="43.5506" lon="6.28373">
        <ele>419.6</ele>
        <time>2018-01-30T13:14:26Z</time>
      </trkpt>
      <trkpt lat="43.55056" lon="6.2836">
        <ele>419.6</ele>
        <time>2018-01-30T13:14:33Z</time>
      </trkpt>
      <trkpt lat="43.55054" lon="6.28346">
        <ele>419.8</ele>
        <time>2018-01-30T13:14:41Z</time>
      </trkpt>
      <trkpt lat="43.55053" lon="6.28333">
        <ele>419.3</ele>
        <time>2018-01-30T13:14:49Z</time>
      </trkpt>
      <trkpt lat="43.55053" lon="6.28319">
        <ele>419.2</ele>
        <time>2018-01-30T13:14:56Z</time>
      </trkpt>
      <trkpt lat="43.55056" lon="6.28306">
        <ele>419.1</ele>
        <time>2018-01-30T13:15:01Z</time>
      </trkpt>
      <trkpt lat="43.55057" lon="6.28292">
        <ele>418.5</ele>
        <time>2018-01-30T13:15:08Z</time>
      </trkpt>
      <trkpt lat="43.55061" lon="6.2828">
        <ele>418</ele>
        <time>2018-01-30T13:15:16Z</time>
      </trkpt>
      <trkpt lat="43.55065" lon="6.28268">
        <ele>418</ele>
        <time>2018-01-30T13:15:22Z</time>
      </trkpt>
      <trkpt lat="43.55068" lon="6.28256">
        <ele>418.1</ele>
        <time>2018-01-30T13:15:29Z</time>
      </trkpt>
      <trkpt lat="43.55071" lon="6.28243">
        <ele>417.9</ele>
        <time>2018-01-30T13:15:36Z</time>
      </trkpt>
      <trkpt lat="43.55073" lon="6.2823">
        <ele>418.2</ele>
        <time>2018-01-30T13:15:45Z</time>
      </trkpt>
      <trkpt lat="43.55075" lon="6.28216">
        <ele>418.7</ele>
        <time>2018-01-30T13:15:52Z</time>
      </trkpt>
      <trkpt lat="43.55075" lon="6.28202">
        <ele>419.1</ele>
        <time>2018-01-30T13:16:00Z</time>
      </trkpt>
      <trkpt lat="43.55075" lon="6.28189">
        <ele>418.8</ele>
        <time>2018-01-30T13:16:07Z</time>
      </trkpt>
      <trkpt lat="43.5508" lon="6.28175">
        <ele>418.9</ele>
        <time>2018-01-30T13:16:13Z</time>
      </trkpt>
      <trkpt lat="43.55083" lon="6.28162">
        <ele>418.7</ele>
        <time>2018-01-30T13:16:20Z</time>
      </trkpt>
      <trkpt lat="43.55087" lon="6.28149">
        <ele>418.8</ele>
        <time>2018-01-30T13:16:26Z</time>
      </trkpt>
      <trkpt lat="43.55088" lon="6.28137">
        <ele>418.7</ele>
        <time>2018-01-30T13:16:32Z</time>
      </trkpt>
      <trkpt lat="43.55088" lon="6.28124">
        <ele>419.1</ele>
        <time>2018-01-30T13:16:39Z</time>
      </trkpt>
      <trkpt lat="43.55088" lon="6.28112">
        <ele>419.3</ele>
        <time>2018-01-30T13:16:46Z</time>
      </trkpt>
      <trkpt lat="43.55087" lon="6.28099">
        <ele>419.3</ele>
        <time>2018-01-30T13:16:53Z</time>
      </trkpt>
      <trkpt lat="43.55087" lon="6.28086">
        <ele>419.2</ele>
        <time>2018-01-30T13:17:01Z</time>
      </trkpt>
      <trkpt lat="43.55089" lon="6.28072">
        <ele>419</ele>
        <time>2018-01-30T13:17:08Z</time>
      </trkpt>
      <trkpt lat="43.55092" lon="6.28058">
        <ele>418.8</ele>
        <time>2018-01-30T13:17:14Z</time>
      </trkpt>
      <trkpt lat="43.55095" lon="6.28045">
        <ele>418.6</ele>
        <time>2018-01-30T13:17:21Z</time>
      </trkpt>
      <trkpt lat="43.55096" lon="6.28031">
        <ele>418.4</ele>
        <time>2018-01-30T13:17:27Z</time>
      </trkpt>
      <trkpt lat="43.55095" lon="6.28018">
        <ele>418.3</ele>
        <time>2018-01-30T13:17:34Z</time>
      </trkpt>
      <trkpt lat="43.55092" lon="6.28004">
        <ele>417.9</ele>
        <time>2018-01-30T13:17:43Z</time>
      </trkpt>
      <trkpt lat="43.55092" lon="6.27991">
        <ele>417.6</ele>
        <time>2018-01-30T13:17:50Z</time>
      </trkpt>
      <trkpt lat="43.55093" lon="6.27978">
        <ele>417</ele>
        <time>2018-01-30T13:17:57Z</time>
      </trkpt>
      <trkpt lat="43.55093" lon="6.27964">
        <ele>416.6</ele>
        <time>2018-01-30T13:18:03Z</time>
      </trkpt>
      <trkpt lat="43.55091" lon="6.27951">
        <ele>416.1</ele>
        <time>2018-01-30T13:18:10Z</time>
      </trkpt>
      <trkpt lat="43.55091" lon="6.27937">
        <ele>415.6</ele>
        <time>2018-01-30T13:18:17Z</time>
      </trkpt>
      <trkpt lat="43.5509" lon="6.27925">
        <ele>415.2</ele>
        <time>2018-01-30T13:18:24Z</time>
      </trkpt>
      <trkpt lat="43.55087" lon="6.27913">
        <ele>413.9</ele>
        <time>2018-01-30T13:18:39Z</time>
      </trkpt>
      <trkpt lat="43.55096" lon="6.27908">
        <ele>413.7</ele>
        <time>2018-01-30T13:20:36Z</time>
      </trkpt>
      <trkpt lat="43.55092" lon="6.27896">
        <ele>412.3</ele>
        <time>2018-01-30T13:21:29Z</time>
      </trkpt>
      <trkpt lat="43.55095" lon="6.27884">
        <ele>412.1</ele>
        <time>2018-01-30T13:21:36Z</time>
      </trkpt>
      <trkpt lat="43.551" lon="6.27871">
        <ele>411.7</ele>
        <time>2018-01-30T13:21:44Z</time>
      </trkpt>
      <trkpt lat="43.55101" lon="6.27859">
        <ele>411</ele>
        <time>2018-01-30T13:21:53Z</time>
      </trkpt>
      <trkpt lat="43.55103" lon="6.27845">
        <ele>410.6</ele>
        <time>2018-01-30T13:22:01Z</time>
      </trkpt>
      <trkpt lat="43.55102" lon="6.27832">
        <ele>410.6</ele>
        <time>2018-01-30T13:22:11Z</time>
      </trkpt>
      <trkpt lat="43.55104" lon="6.2782">
        <ele>410.1</ele>
        <time>2018-01-30T13:22:18Z</time>
      </trkpt>
      <trkpt lat="43.55104" lon="6.27806">
        <ele>409.1</ele>
        <time>2018-01-30T13:22:25Z</time>
      </trkpt>
      <trkpt lat="43.55104" lon="6.27791">
        <ele>408.7</ele>
        <time>2018-01-30T13:22:32Z</time>
      </trkpt>
      <trkpt lat="43.55104" lon="6.27777">
        <ele>408.2</ele>
        <time>2018-01-30T13:22:38Z</time>
      </trkpt>
      <trkpt lat="43.55099" lon="6.27765">
        <ele>407.4</ele>
        <time>2018-01-30T13:22:45Z</time>
      </trkpt>
      <trkpt lat="43.55095" lon="6.27752">
        <ele>406.5</ele>
        <time>2018-01-30T13:22:52Z</time>
      </trkpt>
      <trkpt lat="43.55094" lon="6.27739">
        <ele>406.2</ele>
        <time>2018-01-30T13:22:59Z</time>
      </trkpt>
      <trkpt lat="43.55091" lon="6.27725">
        <ele>405.6</ele>
        <time>2018-01-30T13:23:06Z</time>
      </trkpt>
      <trkpt lat="43.5509" lon="6.27712">
        <ele>405</ele>
        <time>2018-01-30T13:23:11Z</time>
      </trkpt>
      <trkpt lat="43.55088" lon="6.27699">
        <ele>405.2</ele>
        <time>2018-01-30T13:23:16Z</time>
      </trkpt>
      <trkpt lat="43.55084" lon="6.27686">
        <ele>405.1</ele>
        <time>2018-01-30T13:23:23Z</time>
      </trkpt>
      <trkpt lat="43.55083" lon="6.27672">
        <ele>404.5</ele>
        <time>2018-01-30T13:23:31Z</time>
      </trkpt>
      <trkpt lat="43.55078" lon="6.2766">
        <ele>404</ele>
        <time>2018-01-30T13:23:38Z</time>
      </trkpt>
      <trkpt lat="43.55077" lon="6.27646">
        <ele>404.2</ele>
        <time>2018-01-30T13:23:45Z</time>
      </trkpt>
      <trkpt lat="43.55078" lon="6.27632">
        <ele>404.7</ele>
        <time>2018-01-30T13:23:51Z</time>
      </trkpt>
      <trkpt lat="43.55079" lon="6.27619">
        <ele>404.6</ele>
        <time>2018-01-30T13:23:57Z</time>
      </trkpt>
      <trkpt lat="43.5508" lon="6.27606">
        <ele>403.8</ele>
        <time>2018-01-30T13:24:04Z</time>
      </trkpt>
      <trkpt lat="43.55076" lon="6.27594">
        <ele>402.7</ele>
        <time>2018-01-30T13:24:12Z</time>
      </trkpt>
      <trkpt lat="43.55075" lon="6.27581">
        <ele>402.2</ele>
        <time>2018-01-30T13:24:17Z</time>
      </trkpt>
      <trkpt lat="43.55075" lon="6.27569">
        <ele>401.7</ele>
        <time>2018-01-30T13:24:22Z</time>
      </trkpt>
      <trkpt lat="43.55075" lon="6.27556">
        <ele>400.8</ele>
        <time>2018-01-30T13:24:28Z</time>
      </trkpt>
      <trkpt lat="43.55076" lon="6.27543">
        <ele>399.7</ele>
        <time>2018-01-30T13:24:34Z</time>
      </trkpt>
      <trkpt lat="43.55077" lon="6.2753">
        <ele>398.5</ele>
        <time>2018-01-30T13:24:41Z</time>
      </trkpt>
      <trkpt lat="43.5508" lon="6.27516">
        <ele>398.7</ele>
        <time>2018-01-30T13:24:49Z</time>
      </trkpt>
      <trkpt lat="43.55084" lon="6.27505">
        <ele>398.3</ele>
        <time>2018-01-30T13:24:55Z</time>
      </trkpt>
      <trkpt lat="43.55087" lon="6.27493">
        <ele>398.4</ele>
        <time>2018-01-30T13:25:01Z</time>
      </trkpt>
      <trkpt lat="43.55091" lon="6.27482">
        <ele>398</ele>
        <time>2018-01-30T13:25:06Z</time>
      </trkpt>
      <trkpt lat="43.55094" lon="6.27469">
        <ele>398</ele>
        <time>2018-01-30T13:25:14Z</time>
      </trkpt>
      <trkpt lat="43.55099" lon="6.27457">
        <ele>397.8</ele>
        <time>2018-01-30T13:25:21Z</time>
      </trkpt>
      <trkpt lat="43.55095" lon="6.27445">
        <ele>398</ele>
        <time>2018-01-30T13:25:29Z</time>
      </trkpt>
      <trkpt lat="43.55092" lon="6.27432">
        <ele>398</ele>
        <time>2018-01-30T13:25:38Z</time>
      </trkpt>
      <trkpt lat="43.55092" lon="6.27419">
        <ele>398.1</ele>
        <time>2018-01-30T13:25:45Z</time>
      </trkpt>
      <trkpt lat="43.55095" lon="6.27406">
        <ele>397.9</ele>
        <time>2018-01-30T13:25:52Z</time>
      </trkpt>
      <trkpt lat="43.55101" lon="6.27395">
        <ele>397.8</ele>
        <time>2018-01-30T13:26:01Z</time>
      </trkpt>
      <trkpt lat="43.55104" lon="6.27382">
        <ele>397.8</ele>
        <time>2018-01-30T13:26:08Z</time>
      </trkpt>
      <trkpt lat="43.55103" lon="6.27369">
        <ele>397.7</ele>
        <time>2018-01-30T13:26:17Z</time>
      </trkpt>
      <trkpt lat="43.55104" lon="6.27354">
        <ele>398.2</ele>
        <time>2018-01-30T13:26:24Z</time>
      </trkpt>
      <trkpt lat="43.55107" lon="6.27342">
        <ele>398.7</ele>
        <time>2018-01-30T13:26:29Z</time>
      </trkpt>
      <trkpt lat="43.55109" lon="6.27329">
        <ele>399.3</ele>
        <time>2018-01-30T13:26:35Z</time>
      </trkpt>
      <trkpt lat="43.5511" lon="6.27316">
        <ele>399.8</ele>
        <time>2018-01-30T13:26:41Z</time>
      </trkpt>
      <trkpt lat="43.55111" lon="6.27303">
        <ele>400.7</ele>
        <time>2018-01-30T13:26:47Z</time>
      </trkpt>
      <trkpt lat="43.55111" lon="6.27289">
        <ele>401.6</ele>
        <time>2018-01-30T13:26:55Z</time>
      </trkpt>
      <trkpt lat="43.55114" lon="6.27277">
        <ele>402.8</ele>
        <time>2018-01-30T13:27:02Z</time>
      </trkpt>
      <trkpt lat="43.55107" lon="6.27268">
        <ele>405.1</ele>
        <time>2018-01-30T13:27:12Z</time>
      </trkpt>
      <trkpt lat="43.55106" lon="6.27255">
        <ele>406.3</ele>
        <time>2018-01-30T13:27:19Z</time>
      </trkpt>
      <trkpt lat="43.55107" lon="6.27242">
        <ele>407.8</ele>
        <time>2018-01-30T13:27:27Z</time>
      </trkpt>
      <trkpt lat="43.55109" lon="6.27229">
        <ele>408.8</ele>
        <time>2018-01-30T13:27:35Z</time>
      </trkpt>
      <trkpt lat="43.55112" lon="6.27216">
        <ele>410</ele>
        <time>2018-01-30T13:27:42Z</time>
      </trkpt>
      <trkpt lat="43.55113" lon="6.27202">
        <ele>411.1</ele>
        <time>2018-01-30T13:27:50Z</time>
      </trkpt>
      <trkpt lat="43.5511" lon="6.27189">
        <ele>413.1</ele>
        <time>2018-01-30T13:28:01Z</time>
      </trkpt>
      <trkpt lat="43.55113" lon="6.27177">
        <ele>414.4</ele>
        <time>2018-01-30T13:28:08Z</time>
      </trkpt>
      <trkpt lat="43.55117" lon="6.27164">
        <ele>415.3</ele>
        <time>2018-01-30T13:28:15Z</time>
      </trkpt>
      <trkpt lat="43.5512" lon="6.27153">
        <ele>416.3</ele>
        <time>2018-01-30T13:28:21Z</time>
      </trkpt>
      <trkpt lat="43.55119" lon="6.2714">
        <ele>417.1</ele>
        <time>2018-01-30T13:28:28Z</time>
      </trkpt>
      <trkpt lat="43.55118" lon="6.27126">
        <ele>418</ele>
        <time>2018-01-30T13:28:36Z</time>
      </trkpt>
      <trkpt lat="43.55118" lon="6.27112">
        <ele>418.5</ele>
        <time>2018-01-30T13:28:44Z</time>
      </trkpt>
      <trkpt lat="43.55115" lon="6.27101">
        <ele>418</ele>
        <time>2018-01-30T13:28:52Z</time>
      </trkpt>
      <trkpt lat="43.55111" lon="6.27089">
        <ele>418.2</ele>
        <time>2018-01-30T13:29:00Z</time>
      </trkpt>
      <trkpt lat="43.55107" lon="6.27077">
        <ele>418.3</ele>
        <time>2018-01-30T13:29:07Z</time>
      </trkpt>
      <trkpt lat="43.55107" lon="6.27063">
        <ele>418</ele>
        <time>2018-01-30T13:29:14Z</time>
      </trkpt>
      <trkpt lat="43.55109" lon="6.27049">
        <ele>417.4</ele>
        <time>2018-01-30T13:29:20Z</time>
      </trkpt>
      <trkpt lat="43.5511" lon="6.27034">
        <ele>417.1</ele>
        <time>2018-01-30T13:29:26Z</time>
      </trkpt>
      <trkpt lat="43.55112" lon="6.27022">
        <ele>416.1</ele>
        <time>2018-01-30T13:29:33Z</time>
      </trkpt>
      <trkpt lat="43.55113" lon="6.27008">
        <ele>415.2</ele>
        <time>2018-01-30T13:29:39Z</time>
      </trkpt>
      <trkpt lat="43.55116" lon="6.26995">
        <ele>414.6</ele>
        <time>2018-01-30T13:29:45Z</time>
      </trkpt>
      <trkpt lat="43.5512" lon="6.26981">
        <ele>414.1</ele>
        <time>2018-01-30T13:29:52Z</time>
      </trkpt>
      <trkpt lat="43.55123" lon="6.26969">
        <ele>413.6</ele>
        <time>2018-01-30T13:29:59Z</time>
      </trkpt>
      <trkpt lat="43.55125" lon="6.26957">
        <ele>413.6</ele>
        <time>2018-01-30T13:30:07Z</time>
      </trkpt>
      <trkpt lat="43.5513" lon="6.26943">
        <ele>413.7</ele>
        <time>2018-01-30T13:30:13Z</time>
      </trkpt>
      <trkpt lat="43.55134" lon="6.26931">
        <ele>413.9</ele>
        <time>2018-01-30T13:30:19Z</time>
      </trkpt>
      <trkpt lat="43.55137" lon="6.26919">
        <ele>414.6</ele>
        <time>2018-01-30T13:30:25Z</time>
      </trkpt>
      <trkpt lat="43.55141" lon="6.26906">
        <ele>415.1</ele>
        <time>2018-01-30T13:30:31Z</time>
      </trkpt>
      <trkpt lat="43.55145" lon="6.26894">
        <ele>416.1</ele>
        <time>2018-01-30T13:30:40Z</time>
      </trkpt>
      <trkpt lat="43.55146" lon="6.26881">
        <ele>417.6</ele>
        <time>2018-01-30T13:30:51Z</time>
      </trkpt>
      <trkpt lat="43.55149" lon="6.2687">
        <ele>418.1</ele>
        <time>2018-01-30T13:30:57Z</time>
      </trkpt>
      <trkpt lat="43.55152" lon="6.26856">
        <ele>419</ele>
        <time>2018-01-30T13:31:04Z</time>
      </trkpt>
      <trkpt lat="43.55155" lon="6.26843">
        <ele>419.5</ele>
        <time>2018-01-30T13:31:12Z</time>
      </trkpt>
      <trkpt lat="43.55159" lon="6.26831">
        <ele>420</ele>
        <time>2018-01-30T13:31:18Z</time>
      </trkpt>
      <trkpt lat="43.55161" lon="6.26818">
        <ele>420.6</ele>
        <time>2018-01-30T13:31:26Z</time>
      </trkpt>
      <trkpt lat="43.55165" lon="6.26807">
        <ele>420.6</ele>
        <time>2018-01-30T13:31:33Z</time>
      </trkpt>
      <trkpt lat="43.5517" lon="6.26796">
        <ele>421.1</ele>
        <time>2018-01-30T13:31:39Z</time>
      </trkpt>
      <trkpt lat="43.55176" lon="6.26787">
        <ele>421.6</ele>
        <time>2018-01-30T13:31:45Z</time>
      </trkpt>
      <trkpt lat="43.55179" lon="6.26774">
        <ele>422.2</ele>
        <time>2018-01-30T13:31:52Z</time>
      </trkpt>
      <trkpt lat="43.5518" lon="6.26761">
        <ele>422.9</ele>
        <time>2018-01-30T13:32:00Z</time>
      </trkpt>
      <trkpt lat="43.5518" lon="6.26748">
        <ele>423.2</ele>
        <time>2018-01-30T13:32:07Z</time>
      </trkpt>
      <trkpt lat="43.5518" lon="6.26736">
        <ele>423.9</ele>
        <time>2018-01-30T13:32:15Z</time>
      </trkpt>
      <trkpt lat="43.55181" lon="6.26723">
        <ele>424</ele>
        <time>2018-01-30T13:32:21Z</time>
      </trkpt>
      <trkpt lat="43.55182" lon="6.26711">
        <ele>423.4</ele>
        <time>2018-01-30T13:32:27Z</time>
      </trkpt>
      <trkpt lat="43.55184" lon="6.26697">
        <ele>423</ele>
        <time>2018-01-30T13:32:36Z</time>
      </trkpt>
      <trkpt lat="43.55187" lon="6.26684">
        <ele>422.5</ele>
        <time>2018-01-30T13:32:42Z</time>
      </trkpt>
      <trkpt lat="43.55192" lon="6.26671">
        <ele>421.9</ele>
        <time>2018-01-30T13:32:49Z</time>
      </trkpt>
      <trkpt lat="43.55196" lon="6.26659">
        <ele>421.5</ele>
        <time>2018-01-30T13:32:55Z</time>
      </trkpt>
      <trkpt lat="43.55199" lon="6.26646">
        <ele>420.8</ele>
        <time>2018-01-30T13:33:01Z</time>
      </trkpt>
      <trkpt lat="43.55201" lon="6.26634">
        <ele>419.5</ele>
        <time>2018-01-30T13:33:08Z</time>
      </trkpt>
      <trkpt lat="43.55202" lon="6.26619">
        <ele>418.7</ele>
        <time>2018-01-30T13:33:16Z</time>
      </trkpt>
      <trkpt lat="43.55204" lon="6.26605">
        <ele>418</ele>
        <time>2018-01-30T13:33:22Z</time>
      </trkpt>
      <trkpt lat="43.55207" lon="6.26592">
        <ele>417.5</ele>
        <time>2018-01-30T13:33:28Z</time>
      </trkpt>
      <trkpt lat="43.55211" lon="6.26581">
        <ele>416.7</ele>
        <time>2018-01-30T13:33:34Z</time>
      </trkpt>
      <trkpt lat="43.5521" lon="6.26566">
        <ele>415.9</ele>
        <time>2018-01-30T13:33:42Z</time>
      </trkpt>
      <trkpt lat="43.55211" lon="6.26553">
        <ele>415.6</ele>
        <time>2018-01-30T13:33:48Z</time>
      </trkpt>
      <trkpt lat="43.5521" lon="6.26541">
        <ele>415.4</ele>
        <time>2018-01-30T13:33:55Z</time>
      </trkpt>
      <trkpt lat="43.5521" lon="6.26528">
        <ele>414.8</ele>
        <time>2018-01-30T13:34:02Z</time>
      </trkpt>
      <trkpt lat="43.5521" lon="6.26514">
        <ele>414.5</ele>
        <time>2018-01-30T13:34:09Z</time>
      </trkpt>
      <trkpt lat="43.55211" lon="6.265">
        <ele>413.6</ele>
        <time>2018-01-30T13:34:16Z</time>
      </trkpt>
      <trkpt lat="43.55212" lon="6.26487">
        <ele>413.2</ele>
        <time>2018-01-30T13:34:23Z</time>
      </trkpt>
      <trkpt lat="43.5521" lon="6.26474">
        <ele>412.3</ele>
        <time>2018-01-30T13:34:30Z</time>
      </trkpt>
      <trkpt lat="43.5521" lon="6.26462">
        <ele>411.8</ele>
        <time>2018-01-30T13:34:37Z</time>
      </trkpt>
      <trkpt lat="43.55212" lon="6.26448">
        <ele>411.8</ele>
        <time>2018-01-30T13:34:42Z</time>
      </trkpt>
      <trkpt lat="43.55214" lon="6.26435">
        <ele>411.4</ele>
        <time>2018-01-30T13:34:49Z</time>
      </trkpt>
      <trkpt lat="43.55214" lon="6.26422">
        <ele>411</ele>
        <time>2018-01-30T13:34:58Z</time>
      </trkpt>
      <trkpt lat="43.55213" lon="6.26408">
        <ele>411.5</ele>
        <time>2018-01-30T13:35:07Z</time>
      </trkpt>
      <trkpt lat="43.55213" lon="6.26395">
        <ele>412.2</ele>
        <time>2018-01-30T13:35:14Z</time>
      </trkpt>
      <trkpt lat="43.55214" lon="6.26381">
        <ele>412.3</ele>
        <time>2018-01-30T13:35:21Z</time>
      </trkpt>
      <trkpt lat="43.55216" lon="6.26368">
        <ele>412.8</ele>
        <time>2018-01-30T13:35:27Z</time>
      </trkpt>
      <trkpt lat="43.55217" lon="6.26355">
        <ele>413.1</ele>
        <time>2018-01-30T13:35:35Z</time>
      </trkpt>
      <trkpt lat="43.5522" lon="6.26341">
        <ele>414.2</ele>
        <time>2018-01-30T13:35:44Z</time>
      </trkpt>
      <trkpt lat="43.55222" lon="6.26328">
        <ele>414.7</ele>
        <time>2018-01-30T13:35:51Z</time>
      </trkpt>
      <trkpt lat="43.55222" lon="6.26315">
        <ele>415.2</ele>
        <time>2018-01-30T13:35:58Z</time>
      </trkpt>
      <trkpt lat="43.55221" lon="6.26301">
        <ele>416</ele>
        <time>2018-01-30T13:36:07Z</time>
      </trkpt>
      <trkpt lat="43.5522" lon="6.26288">
        <ele>417.1</ele>
        <time>2018-01-30T13:36:15Z</time>
      </trkpt>
      <trkpt lat="43.55221" lon="6.26276">
        <ele>417.6</ele>
        <time>2018-01-30T13:36:22Z</time>
      </trkpt>
      <trkpt lat="43.5522" lon="6.26263">
        <ele>418</ele>
        <time>2018-01-30T13:36:31Z</time>
      </trkpt>
      <trkpt lat="43.55223" lon="6.2625">
        <ele>418.7</ele>
        <time>2018-01-30T13:36:37Z</time>
      </trkpt>
      <trkpt lat="43.55225" lon="6.26237">
        <ele>419.1</ele>
        <time>2018-01-30T13:36:44Z</time>
      </trkpt>
      <trkpt lat="43.55224" lon="6.26225">
        <ele>419.7</ele>
        <time>2018-01-30T13:36:52Z</time>
      </trkpt>
      <trkpt lat="43.55223" lon="6.26211">
        <ele>419.9</ele>
        <time>2018-01-30T13:36:59Z</time>
      </trkpt>
      <trkpt lat="43.55223" lon="6.26198">
        <ele>420.4</ele>
        <time>2018-01-30T13:37:06Z</time>
      </trkpt>
      <trkpt lat="43.5522" lon="6.26186">
        <ele>421</ele>
        <time>2018-01-30T13:37:15Z</time>
      </trkpt>
      <trkpt lat="43.55221" lon="6.26173">
        <ele>421.4</ele>
        <time>2018-01-30T13:37:22Z</time>
      </trkpt>
      <trkpt lat="43.55221" lon="6.2616">
        <ele>422.3</ele>
        <time>2018-01-30T13:37:28Z</time>
      </trkpt>
      <trkpt lat="43.55221" lon="6.26145">
        <ele>423.1</ele>
        <time>2018-01-30T13:37:36Z</time>
      </trkpt>
      <trkpt lat="43.55222" lon="6.26133">
        <ele>423.3</ele>
        <time>2018-01-30T13:37:42Z</time>
      </trkpt>
      <trkpt lat="43.55221" lon="6.2612">
        <ele>423.7</ele>
        <time>2018-01-30T13:37:48Z</time>
      </trkpt>
      <trkpt lat="43.55221" lon="6.26107">
        <ele>424.1</ele>
        <time>2018-01-30T13:37:55Z</time>
      </trkpt>
      <trkpt lat="43.55223" lon="6.26095">
        <ele>424.2</ele>
        <time>2018-01-30T13:38:01Z</time>
      </trkpt>
      <trkpt lat="43.55221" lon="6.26082">
        <ele>424.3</ele>
        <time>2018-01-30T13:38:07Z</time>
      </trkpt>
      <trkpt lat="43.55222" lon="6.26069">
        <ele>423.9</ele>
        <time>2018-01-30T13:38:13Z</time>
      </trkpt>
      <trkpt lat="43.55219" lon="6.26056">
        <ele>424</ele>
        <time>2018-01-30T13:38:21Z</time>
      </trkpt>
      <trkpt lat="43.55218" lon="6.26043">
        <ele>424.1</ele>
        <time>2018-01-30T13:38:28Z</time>
      </trkpt>
      <trkpt lat="43.55216" lon="6.26029">
        <ele>423.9</ele>
        <time>2018-01-30T13:38:35Z</time>
      </trkpt>
      <trkpt lat="43.55216" lon="6.26014">
        <ele>423.5</ele>
        <time>2018-01-30T13:38:42Z</time>
      </trkpt>
      <trkpt lat="43.55212" lon="6.26003">
        <ele>424</ele>
        <time>2018-01-30T13:38:48Z</time>
      </trkpt>
      <trkpt lat="43.55206" lon="6.25992">
        <ele>424.2</ele>
        <time>2018-01-30T13:38:54Z</time>
      </trkpt>
      <trkpt lat="43.55203" lon="6.25979">
        <ele>423.8</ele>
        <time>2018-01-30T13:39:00Z</time>
      </trkpt>
      <trkpt lat="43.552" lon="6.25967">
        <ele>423.3</ele>
        <time>2018-01-30T13:39:06Z</time>
      </trkpt>
      <trkpt lat="43.55197" lon="6.25954">
        <ele>422.4</ele>
        <time>2018-01-30T13:39:13Z</time>
      </trkpt>
      <trkpt lat="43.55193" lon="6.25943">
        <ele>420.9</ele>
        <time>2018-01-30T13:39:20Z</time>
      </trkpt>
      <trkpt lat="43.55191" lon="6.25931">
        <ele>419.6</ele>
        <time>2018-01-30T13:39:28Z</time>
      </trkpt>
      <trkpt lat="43.5519" lon="6.25918">
        <ele>418.3</ele>
        <time>2018-01-30T13:39:36Z</time>
      </trkpt>
      <trkpt lat="43.55189" lon="6.25904">
        <ele>417.1</ele>
        <time>2018-01-30T13:39:44Z</time>
      </trkpt>
      <trkpt lat="43.55187" lon="6.2589">
        <ele>415.9</ele>
        <time>2018-01-30T13:39:51Z</time>
      </trkpt>
      <trkpt lat="43.55188" lon="6.25877">
        <ele>415</ele>
        <time>2018-01-30T13:39:56Z</time>
      </trkpt>
      <trkpt lat="43.5519" lon="6.25864">
        <ele>413.1</ele>
        <time>2018-01-30T13:40:03Z</time>
      </trkpt>
      <trkpt lat="43.55186" lon="6.25851">
        <ele>411.7</ele>
        <time>2018-01-30T13:40:10Z</time>
      </trkpt>
      <trkpt lat="43.55186" lon="6.25837">
        <ele>410.5</ele>
        <time>2018-01-30T13:40:17Z</time>
      </trkpt>
      <trkpt lat="43.55183" lon="6.25825">
        <ele>410</ele>
        <time>2018-01-30T13:40:24Z</time>
      </trkpt>
      <trkpt lat="43.55181" lon="6.2581">
        <ele>409.4</ele>
        <time>2018-01-30T13:40:32Z</time>
      </trkpt>
      <trkpt lat="43.55176" lon="6.258">
        <ele>409.6</ele>
        <time>2018-01-30T13:40:40Z</time>
      </trkpt>
      <trkpt lat="43.55172" lon="6.25789">
        <ele>409.2</ele>
        <time>2018-01-30T13:40:47Z</time>
      </trkpt>
      <trkpt lat="43.55165" lon="6.25781">
        <ele>409.3</ele>
        <time>2018-01-30T13:40:54Z</time>
      </trkpt>
      <trkpt lat="43.55157" lon="6.25772">
        <ele>409</ele>
        <time>2018-01-30T13:40:59Z</time>
      </trkpt>
      <trkpt lat="43.5515" lon="6.25761">
        <ele>408.4</ele>
        <time>2018-01-30T13:41:05Z</time>
      </trkpt>
      <trkpt lat="43.55145" lon="6.25751">
        <ele>408.4</ele>
        <time>2018-01-30T13:41:10Z</time>
      </trkpt>
      <trkpt lat="43.55145" lon="6.25737">
        <ele>408.1</ele>
        <time>2018-01-30T13:41:16Z</time>
      </trkpt>
      <trkpt lat="43.55139" lon="6.25727">
        <ele>408.1</ele>
        <time>2018-01-30T13:41:23Z</time>
      </trkpt>
      <trkpt lat="43.55134" lon="6.25716">
        <ele>407.5</ele>
        <time>2018-01-30T13:41:29Z</time>
      </trkpt>
      <trkpt lat="43.55129" lon="6.25706">
        <ele>407.6</ele>
        <time>2018-01-30T13:41:35Z</time>
      </trkpt>
      <trkpt lat="43.55123" lon="6.25695">
        <ele>407.4</ele>
        <time>2018-01-30T13:41:41Z</time>
      </trkpt>
      <trkpt lat="43.5512" lon="6.25682">
        <ele>406.5</ele>
        <time>2018-01-30T13:41:48Z</time>
      </trkpt>
      <trkpt lat="43.55119" lon="6.2567">
        <ele>406.2</ele>
        <time>2018-01-30T13:41:54Z</time>
      </trkpt>
      <trkpt lat="43.55126" lon="6.25678">
        <ele>406.5</ele>
        <time>2018-01-30T13:42:26Z</time>
      </trkpt>
      <trkpt lat="43.5513" lon="6.25691">
        <ele>406.2</ele>
        <time>2018-01-30T13:42:36Z</time>
      </trkpt>
      <trkpt lat="43.55135" lon="6.25703">
        <ele>406.7</ele>
        <time>2018-01-30T13:42:44Z</time>
      </trkpt>
      <trkpt lat="43.55138" lon="6.25716">
        <ele>407</ele>
        <time>2018-01-30T13:42:51Z</time>
      </trkpt>
      <trkpt lat="43.55143" lon="6.25728">
        <ele>407.5</ele>
        <time>2018-01-30T13:42:59Z</time>
      </trkpt>
      <trkpt lat="43.55147" lon="6.25741">
        <ele>407.4</ele>
        <time>2018-01-30T13:43:06Z</time>
      </trkpt>
      <trkpt lat="43.55152" lon="6.25753">
        <ele>407.1</ele>
        <time>2018-01-30T13:43:13Z</time>
      </trkpt>
      <trkpt lat="43.55159" lon="6.25762">
        <ele>407.3</ele>
        <time>2018-01-30T13:43:19Z</time>
      </trkpt>
      <trkpt lat="43.55165" lon="6.25772">
        <ele>407.6</ele>
        <time>2018-01-30T13:43:26Z</time>
      </trkpt>
      <trkpt lat="43.55172" lon="6.2578">
        <ele>408.2</ele>
        <time>2018-01-30T13:43:33Z</time>
      </trkpt>
      <trkpt lat="43.55178" lon="6.25789">
        <ele>408.2</ele>
        <time>2018-01-30T13:43:39Z</time>
      </trkpt>
      <trkpt lat="43.55182" lon="6.25801">
        <ele>408.6</ele>
        <time>2018-01-30T13:43:47Z</time>
      </trkpt>
      <trkpt lat="43.55187" lon="6.25814">
        <ele>408.5</ele>
        <time>2018-01-30T13:43:53Z</time>
      </trkpt>
      <trkpt lat="43.55187" lon="6.25827">
        <ele>408.4</ele>
        <time>2018-01-30T13:44:01Z</time>
      </trkpt>
      <trkpt lat="43.55188" lon="6.25841">
        <ele>408.4</ele>
        <time>2018-01-30T13:44:08Z</time>
      </trkpt>
      <trkpt lat="43.55189" lon="6.25853">
        <ele>409.2</ele>
        <time>2018-01-30T13:44:19Z</time>
      </trkpt>
      <trkpt lat="43.55189" lon="6.25866">
        <ele>410.4</ele>
        <time>2018-01-30T13:44:29Z</time>
      </trkpt>
      <trkpt lat="43.55186" lon="6.2588">
        <ele>411.7</ele>
        <time>2018-01-30T13:44:40Z</time>
      </trkpt>
      <trkpt lat="43.55187" lon="6.25893">
        <ele>412.9</ele>
        <time>2018-01-30T13:44:49Z</time>
      </trkpt>
      <trkpt lat="43.55187" lon="6.25906">
        <ele>414.6</ele>
        <time>2018-01-30T13:45:00Z</time>
      </trkpt>
      <trkpt lat="43.5519" lon="6.25918">
        <ele>416.3</ele>
        <time>2018-01-30T13:45:10Z</time>
      </trkpt>
      <trkpt lat="43.55194" lon="6.2593">
        <ele>417.5</ele>
        <time>2018-01-30T13:45:18Z</time>
      </trkpt>
      <trkpt lat="43.55198" lon="6.25942">
        <ele>418.7</ele>
        <time>2018-01-30T13:45:27Z</time>
      </trkpt>
      <trkpt lat="43.55201" lon="6.25954">
        <ele>422.2</ele>
        <time>2018-01-30T13:46:05Z</time>
      </trkpt>
      <trkpt lat="43.55201" lon="6.25967">
        <ele>423</ele>
        <time>2018-01-30T13:47:42Z</time>
      </trkpt>
      <trkpt lat="43.55208" lon="6.25975">
        <ele>423.5</ele>
        <time>2018-01-30T13:48:46Z</time>
      </trkpt>
      <trkpt lat="43.55212" lon="6.25988">
        <ele>423.9</ele>
        <time>2018-01-30T13:48:57Z</time>
      </trkpt>
      <trkpt lat="43.55214" lon="6.26">
        <ele>423.9</ele>
        <time>2018-01-30T13:49:04Z</time>
      </trkpt>
      <trkpt lat="43.55217" lon="6.26013">
        <ele>423.8</ele>
        <time>2018-01-30T13:49:12Z</time>
      </trkpt>
      <trkpt lat="43.55218" lon="6.26025">
        <ele>423.9</ele>
        <time>2018-01-30T13:49:19Z</time>
      </trkpt>
      <trkpt lat="43.55219" lon="6.26038">
        <ele>423.9</ele>
        <time>2018-01-30T13:49:24Z</time>
      </trkpt>
      <trkpt lat="43.55219" lon="6.26051">
        <ele>423.9</ele>
        <time>2018-01-30T13:49:31Z</time>
      </trkpt>
      <trkpt lat="43.5522" lon="6.26065">
        <ele>423.8</ele>
        <time>2018-01-30T13:49:38Z</time>
      </trkpt>
      <trkpt lat="43.55223" lon="6.26079">
        <ele>423.9</ele>
        <time>2018-01-30T13:49:44Z</time>
      </trkpt>
      <trkpt lat="43.55224" lon="6.26094">
        <ele>424.1</ele>
        <time>2018-01-30T13:49:50Z</time>
      </trkpt>
      <trkpt lat="43.55225" lon="6.26108">
        <ele>424.4</ele>
        <time>2018-01-30T13:49:57Z</time>
      </trkpt>
      <trkpt lat="43.55225" lon="6.26121">
        <ele>424.3</ele>
        <time>2018-01-30T13:50:05Z</time>
      </trkpt>
      <trkpt lat="43.55224" lon="6.26134">
        <ele>424.2</ele>
        <time>2018-01-30T13:50:10Z</time>
      </trkpt>
      <trkpt lat="43.55223" lon="6.26146">
        <ele>424</ele>
        <time>2018-01-30T13:50:16Z</time>
      </trkpt>
      <trkpt lat="43.55223" lon="6.26159">
        <ele>423.9</ele>
        <time>2018-01-30T13:50:23Z</time>
      </trkpt>
      <trkpt lat="43.55223" lon="6.26173">
        <ele>423.5</ele>
        <time>2018-01-30T13:50:30Z</time>
      </trkpt>
      <trkpt lat="43.55223" lon="6.26187">
        <ele>422.7</ele>
        <time>2018-01-30T13:50:39Z</time>
      </trkpt>
      <trkpt lat="43.55224" lon="6.262">
        <ele>422.3</ele>
        <time>2018-01-30T13:50:45Z</time>
      </trkpt>
      <trkpt lat="43.55223" lon="6.26214">
        <ele>422</ele>
        <time>2018-01-30T13:50:52Z</time>
      </trkpt>
      <trkpt lat="43.55221" lon="6.26228">
        <ele>421.6</ele>
        <time>2018-01-30T13:50:59Z</time>
      </trkpt>
      <trkpt lat="43.55223" lon="6.26241">
        <ele>420.8</ele>
        <time>2018-01-30T13:51:06Z</time>
      </trkpt>
      <trkpt lat="43.55222" lon="6.26256">
        <ele>420.2</ele>
        <time>2018-01-30T13:51:15Z</time>
      </trkpt>
      <trkpt lat="43.55222" lon="6.26269">
        <ele>420</ele>
        <time>2018-01-30T13:51:20Z</time>
      </trkpt>
      <trkpt lat="43.55221" lon="6.26282">
        <ele>418.7</ele>
        <time>2018-01-30T13:51:28Z</time>
      </trkpt>
      <trkpt lat="43.55222" lon="6.26294">
        <ele>418.2</ele>
        <time>2018-01-30T13:51:33Z</time>
      </trkpt>
      <trkpt lat="43.55224" lon="6.26308">
        <ele>417.7</ele>
        <time>2018-01-30T13:51:39Z</time>
      </trkpt>
      <trkpt lat="43.55223" lon="6.26321">
        <ele>416.9</ele>
        <time>2018-01-30T13:51:46Z</time>
      </trkpt>
      <trkpt lat="43.55223" lon="6.26334">
        <ele>415.8</ele>
        <time>2018-01-30T13:51:52Z</time>
      </trkpt>
      <trkpt lat="43.55221" lon="6.26347">
        <ele>415.2</ele>
        <time>2018-01-30T13:51:58Z</time>
      </trkpt>
      <trkpt lat="43.55219" lon="6.2636">
        <ele>414.1</ele>
        <time>2018-01-30T13:52:05Z</time>
      </trkpt>
      <trkpt lat="43.55218" lon="6.26373">
        <ele>412.9</ele>
        <time>2018-01-30T13:52:13Z</time>
      </trkpt>
      <trkpt lat="43.55219" lon="6.26386">
        <ele>412.6</ele>
        <time>2018-01-30T13:52:21Z</time>
      </trkpt>
      <trkpt lat="43.55219" lon="6.264">
        <ele>412</ele>
        <time>2018-01-30T13:52:30Z</time>
      </trkpt>
      <trkpt lat="43.55215" lon="6.26411">
        <ele>411.6</ele>
        <time>2018-01-30T13:52:38Z</time>
      </trkpt>
      <trkpt lat="43.55215" lon="6.26426">
        <ele>411.4</ele>
        <time>2018-01-30T13:52:44Z</time>
      </trkpt>
      <trkpt lat="43.55214" lon="6.26439">
        <ele>411.1</ele>
        <time>2018-01-30T13:52:50Z</time>
      </trkpt>
      <trkpt lat="43.55213" lon="6.26454">
        <ele>411.2</ele>
        <time>2018-01-30T13:52:57Z</time>
      </trkpt>
      <trkpt lat="43.55213" lon="6.26466">
        <ele>411.6</ele>
        <time>2018-01-30T13:53:02Z</time>
      </trkpt>
      <trkpt lat="43.55216" lon="6.2648">
        <ele>411.9</ele>
        <time>2018-01-30T13:53:08Z</time>
      </trkpt>
      <trkpt lat="43.55217" lon="6.26494">
        <ele>412.2</ele>
        <time>2018-01-30T13:53:15Z</time>
      </trkpt>
      <trkpt lat="43.55215" lon="6.26507">
        <ele>412.7</ele>
        <time>2018-01-30T13:53:23Z</time>
      </trkpt>
      <trkpt lat="43.55216" lon="6.26522">
        <ele>413</ele>
        <time>2018-01-30T13:53:31Z</time>
      </trkpt>
      <trkpt lat="43.55217" lon="6.26535">
        <ele>413.8</ele>
        <time>2018-01-30T13:53:38Z</time>
      </trkpt>
      <trkpt lat="43.55216" lon="6.2655">
        <ele>414</ele>
        <time>2018-01-30T13:53:45Z</time>
      </trkpt>
      <trkpt lat="43.55214" lon="6.26563">
        <ele>414.2</ele>
        <time>2018-01-30T13:53:53Z</time>
      </trkpt>
      <trkpt lat="43.55212" lon="6.26576">
        <ele>414.5</ele>
        <time>2018-01-30T13:54:00Z</time>
      </trkpt>
      <trkpt lat="43.5521" lon="6.26589">
        <ele>415.1</ele>
        <time>2018-01-30T13:54:07Z</time>
      </trkpt>
      <trkpt lat="43.55209" lon="6.26603">
        <ele>415.7</ele>
        <time>2018-01-30T13:54:15Z</time>
      </trkpt>
      <trkpt lat="43.55207" lon="6.26616">
        <ele>416</ele>
        <time>2018-01-30T13:54:21Z</time>
      </trkpt>
      <trkpt lat="43.55205" lon="6.26629">
        <ele>416.5</ele>
        <time>2018-01-30T13:54:28Z</time>
      </trkpt>
      <trkpt lat="43.55203" lon="6.26642">
        <ele>417.3</ele>
        <time>2018-01-30T13:54:36Z</time>
      </trkpt>
      <trkpt lat="43.552" lon="6.26654">
        <ele>418.4</ele>
        <time>2018-01-30T13:54:45Z</time>
      </trkpt>
      <trkpt lat="43.55196" lon="6.26666">
        <ele>419.7</ele>
        <time>2018-01-30T13:54:55Z</time>
      </trkpt>
      <trkpt lat="43.5519" lon="6.26677">
        <ele>421</ele>
        <time>2018-01-30T13:55:04Z</time>
      </trkpt>
      <trkpt lat="43.55189" lon="6.2669">
        <ele>421.8</ele>
        <time>2018-01-30T13:55:12Z</time>
      </trkpt>
      <trkpt lat="43.55188" lon="6.26704">
        <ele>422.6</ele>
        <time>2018-01-30T13:55:20Z</time>
      </trkpt>
      <trkpt lat="43.55186" lon="6.26717">
        <ele>423.7</ele>
        <time>2018-01-30T13:55:29Z</time>
      </trkpt>
      <trkpt lat="43.55186" lon="6.26731">
        <ele>424.1</ele>
        <time>2018-01-30T13:55:37Z</time>
      </trkpt>
      <trkpt lat="43.55185" lon="6.26744">
        <ele>424.5</ele>
        <time>2018-01-30T13:55:45Z</time>
      </trkpt>
      <trkpt lat="43.55182" lon="6.26757">
        <ele>424.2</ele>
        <time>2018-01-30T13:55:52Z</time>
      </trkpt>
      <trkpt lat="43.5518" lon="6.2677">
        <ele>423.9</ele>
        <time>2018-01-30T13:55:58Z</time>
      </trkpt>
      <trkpt lat="43.55177" lon="6.26784">
        <ele>423.4</ele>
        <time>2018-01-30T13:56:04Z</time>
      </trkpt>
      <trkpt lat="43.55173" lon="6.26795">
        <ele>422.4</ele>
        <time>2018-01-30T13:56:10Z</time>
      </trkpt>
      <trkpt lat="43.55171" lon="6.26809">
        <ele>422.3</ele>
        <time>2018-01-30T13:56:16Z</time>
      </trkpt>
      <trkpt lat="43.55168" lon="6.26822">
        <ele>422.5</ele>
        <time>2018-01-30T13:56:23Z</time>
      </trkpt>
      <trkpt lat="43.55161" lon="6.26832">
        <ele>422.4</ele>
        <time>2018-01-30T13:56:29Z</time>
      </trkpt>
      <trkpt lat="43.55157" lon="6.26848">
        <ele>421</ele>
        <time>2018-01-30T13:56:37Z</time>
      </trkpt>
      <trkpt lat="43.55155" lon="6.26861">
        <ele>420.9</ele>
        <time>2018-01-30T13:56:44Z</time>
      </trkpt>
      <trkpt lat="43.55151" lon="6.26875">
        <ele>420.6</ele>
        <time>2018-01-30T13:56:51Z</time>
      </trkpt>
      <trkpt lat="43.55147" lon="6.26887">
        <ele>420</ele>
        <time>2018-01-30T13:56:59Z</time>
      </trkpt>
      <trkpt lat="43.55143" lon="6.269">
        <ele>419.1</ele>
        <time>2018-01-30T13:57:07Z</time>
      </trkpt>
      <trkpt lat="43.55143" lon="6.26912">
        <ele>417.3</ele>
        <time>2018-01-30T13:57:14Z</time>
      </trkpt>
      <trkpt lat="43.55141" lon="6.26926">
        <ele>415.7</ele>
        <time>2018-01-30T13:57:21Z</time>
      </trkpt>
      <trkpt lat="43.55138" lon="6.26938">
        <ele>415</ele>
        <time>2018-01-30T13:57:29Z</time>
      </trkpt>
      <trkpt lat="43.55134" lon="6.26951">
        <ele>414.7</ele>
        <time>2018-01-30T13:57:37Z</time>
      </trkpt>
      <trkpt lat="43.5513" lon="6.26963">
        <ele>414.2</ele>
        <time>2018-01-30T13:57:44Z</time>
      </trkpt>
      <trkpt lat="43.55127" lon="6.26975">
        <ele>414.4</ele>
        <time>2018-01-30T13:57:50Z</time>
      </trkpt>
      <trkpt lat="43.55122" lon="6.26986">
        <ele>414.3</ele>
        <time>2018-01-30T13:57:56Z</time>
      </trkpt>
      <trkpt lat="43.55119" lon="6.26997">
        <ele>414.9</ele>
        <time>2018-01-30T13:58:03Z</time>
      </trkpt>
      <trkpt lat="43.55117" lon="6.2701">
        <ele>415.3</ele>
        <time>2018-01-30T13:58:09Z</time>
      </trkpt>
      <trkpt lat="43.55116" lon="6.27023">
        <ele>415.9</ele>
        <time>2018-01-30T13:58:15Z</time>
      </trkpt>
      <trkpt lat="43.55115" lon="6.27036">
        <ele>416.5</ele>
        <time>2018-01-30T13:58:23Z</time>
      </trkpt>
      <trkpt lat="43.55112" lon="6.27048">
        <ele>417.2</ele>
        <time>2018-01-30T13:58:30Z</time>
      </trkpt>
      <trkpt lat="43.55113" lon="6.27062">
        <ele>417.9</ele>
        <time>2018-01-30T13:58:38Z</time>
      </trkpt>
      <trkpt lat="43.55115" lon="6.27075">
        <ele>418.9</ele>
        <time>2018-01-30T13:58:46Z</time>
      </trkpt>
      <trkpt lat="43.55117" lon="6.27087">
        <ele>419.3</ele>
        <time>2018-01-30T13:58:52Z</time>
      </trkpt>
      <trkpt lat="43.55118" lon="6.271">
        <ele>419.1</ele>
        <time>2018-01-30T13:59:00Z</time>
      </trkpt>
      <trkpt lat="43.5512" lon="6.27113">
        <ele>419.3</ele>
        <time>2018-01-30T13:59:08Z</time>
      </trkpt>
      <trkpt lat="43.55121" lon="6.27126">
        <ele>419.4</ele>
        <time>2018-01-30T13:59:13Z</time>
      </trkpt>
      <trkpt lat="43.55121" lon="6.2714">
        <ele>419.2</ele>
        <time>2018-01-30T13:59:20Z</time>
      </trkpt>
      <trkpt lat="43.5512" lon="6.27153">
        <ele>418.2</ele>
        <time>2018-01-30T13:59:27Z</time>
      </trkpt>
      <trkpt lat="43.55117" lon="6.27165">
        <ele>417.2</ele>
        <time>2018-01-30T13:59:34Z</time>
      </trkpt>
      <trkpt lat="43.55118" lon="6.27179">
        <ele>416.5</ele>
        <time>2018-01-30T13:59:40Z</time>
      </trkpt>
      <trkpt lat="43.55116" lon="6.27191">
        <ele>415.8</ele>
        <time>2018-01-30T13:59:46Z</time>
      </trkpt>
      <trkpt lat="43.55115" lon="6.27205">
        <ele>415</ele>
        <time>2018-01-30T13:59:52Z</time>
      </trkpt>
      <trkpt lat="43.55114" lon="6.27218">
        <ele>413.5</ele>
        <time>2018-01-30T13:59:59Z</time>
      </trkpt>
      <trkpt lat="43.55112" lon="6.2723">
        <ele>412.4</ele>
        <time>2018-01-30T14:00:04Z</time>
      </trkpt>
      <trkpt lat="43.5511" lon="6.27243">
        <ele>411.1</ele>
        <time>2018-01-30T14:00:10Z</time>
      </trkpt>
      <trkpt lat="43.55111" lon="6.27256">
        <ele>409.9</ele>
        <time>2018-01-30T14:00:16Z</time>
      </trkpt>
      <trkpt lat="43.55111" lon="6.27269">
        <ele>407.8</ele>
        <time>2018-01-30T14:00:24Z</time>
      </trkpt>
      <trkpt lat="43.55112" lon="6.27283">
        <ele>406.2</ele>
        <time>2018-01-30T14:00:31Z</time>
      </trkpt>
      <trkpt lat="43.55113" lon="6.27297">
        <ele>404.9</ele>
        <time>2018-01-30T14:00:38Z</time>
      </trkpt>
      <trkpt lat="43.55113" lon="6.27311">
        <ele>404.1</ele>
        <time>2018-01-30T14:00:44Z</time>
      </trkpt>
      <trkpt lat="43.5511" lon="6.27324">
        <ele>403.5</ele>
        <time>2018-01-30T14:00:50Z</time>
      </trkpt>
      <trkpt lat="43.5511" lon="6.27336">
        <ele>403</ele>
        <time>2018-01-30T14:00:56Z</time>
      </trkpt>
      <trkpt lat="43.5511" lon="6.27349">
        <ele>402.2</ele>
        <time>2018-01-30T14:01:02Z</time>
      </trkpt>
      <trkpt lat="43.55108" lon="6.27363">
        <ele>401.5</ele>
        <time>2018-01-30T14:01:09Z</time>
      </trkpt>
      <trkpt lat="43.55106" lon="6.27377">
        <ele>400.7</ele>
        <time>2018-01-30T14:01:15Z</time>
      </trkpt>
      <trkpt lat="43.55105" lon="6.27389">
        <ele>400.2</ele>
        <time>2018-01-30T14:01:25Z</time>
      </trkpt>
      <trkpt lat="43.55102" lon="6.27402">
        <ele>399.9</ele>
        <time>2018-01-30T14:01:33Z</time>
      </trkpt>
      <trkpt lat="43.55098" lon="6.27414">
        <ele>400.3</ele>
        <time>2018-01-30T14:01:43Z</time>
      </trkpt>
      <trkpt lat="43.551" lon="6.27427">
        <ele>400.4</ele>
        <time>2018-01-30T14:01:54Z</time>
      </trkpt>
      <trkpt lat="43.55099" lon="6.27442">
        <ele>400.1</ele>
        <time>2018-01-30T14:02:00Z</time>
      </trkpt>
      <trkpt lat="43.55096" lon="6.27454">
        <ele>399.8</ele>
        <time>2018-01-30T14:02:06Z</time>
      </trkpt>
      <trkpt lat="43.55095" lon="6.27467">
        <ele>399.6</ele>
        <time>2018-01-30T14:02:13Z</time>
      </trkpt>
      <trkpt lat="43.55091" lon="6.2748">
        <ele>399.7</ele>
        <time>2018-01-30T14:02:20Z</time>
      </trkpt>
      <trkpt lat="43.55087" lon="6.27493">
        <ele>399.6</ele>
        <time>2018-01-30T14:02:27Z</time>
      </trkpt>
      <trkpt lat="43.55082" lon="6.27504">
        <ele>399.8</ele>
        <time>2018-01-30T14:02:33Z</time>
      </trkpt>
      <trkpt lat="43.55078" lon="6.27517">
        <ele>400.1</ele>
        <time>2018-01-30T14:02:40Z</time>
      </trkpt>
      <trkpt lat="43.55076" lon="6.27531">
        <ele>400.6</ele>
        <time>2018-01-30T14:02:48Z</time>
      </trkpt>
      <trkpt lat="43.55075" lon="6.27543">
        <ele>401.2</ele>
        <time>2018-01-30T14:02:55Z</time>
      </trkpt>
      <trkpt lat="43.55077" lon="6.27556">
        <ele>401.7</ele>
        <time>2018-01-30T14:03:02Z</time>
      </trkpt>
      <trkpt lat="43.55079" lon="6.27569">
        <ele>402</ele>
        <time>2018-01-30T14:03:08Z</time>
      </trkpt>
      <trkpt lat="43.55081" lon="6.27582">
        <ele>402.7</ele>
        <time>2018-01-30T14:03:17Z</time>
      </trkpt>
      <trkpt lat="43.55083" lon="6.27596">
        <ele>403.4</ele>
        <time>2018-01-30T14:03:26Z</time>
      </trkpt>
      <trkpt lat="43.55084" lon="6.2761">
        <ele>404.1</ele>
        <time>2018-01-30T14:03:34Z</time>
      </trkpt>
      <trkpt lat="43.55084" lon="6.27622">
        <ele>404.9</ele>
        <time>2018-01-30T14:03:42Z</time>
      </trkpt>
      <trkpt lat="43.55084" lon="6.27636">
        <ele>405</ele>
        <time>2018-01-30T14:03:49Z</time>
      </trkpt>
      <trkpt lat="43.55085" lon="6.27649">
        <ele>404.9</ele>
        <time>2018-01-30T14:03:56Z</time>
      </trkpt>
      <trkpt lat="43.55088" lon="6.27662">
        <ele>405</ele>
        <time>2018-01-30T14:04:03Z</time>
      </trkpt>
      <trkpt lat="43.5509" lon="6.27676">
        <ele>405.2</ele>
        <time>2018-01-30T14:04:10Z</time>
      </trkpt>
      <trkpt lat="43.55092" lon="6.27689">
        <ele>405.3</ele>
        <time>2018-01-30T14:04:17Z</time>
      </trkpt>
      <trkpt lat="43.55092" lon="6.27703">
        <ele>405.5</ele>
        <time>2018-01-30T14:04:25Z</time>
      </trkpt>
      <trkpt lat="43.55093" lon="6.27716">
        <ele>405.4</ele>
        <time>2018-01-30T14:04:33Z</time>
      </trkpt>
      <trkpt lat="43.55094" lon="6.27729">
        <ele>405.7</ele>
        <time>2018-01-30T14:04:42Z</time>
      </trkpt>
      <trkpt lat="43.55097" lon="6.27741">
        <ele>405.8</ele>
        <time>2018-01-30T14:04:49Z</time>
      </trkpt>
      <trkpt lat="43.551" lon="6.27754">
        <ele>406.3</ele>
        <time>2018-01-30T14:04:55Z</time>
      </trkpt>
      <trkpt lat="43.55104" lon="6.27766">
        <ele>406.8</ele>
        <time>2018-01-30T14:05:01Z</time>
      </trkpt>
      <trkpt lat="43.55104" lon="6.27779">
        <ele>407</ele>
        <time>2018-01-30T14:05:07Z</time>
      </trkpt>
      <trkpt lat="43.55106" lon="6.27791">
        <ele>407.3</ele>
        <time>2018-01-30T14:05:14Z</time>
      </trkpt>
      <trkpt lat="43.55108" lon="6.27804">
        <ele>408</ele>
        <time>2018-01-30T14:05:21Z</time>
      </trkpt>
      <trkpt lat="43.55104" lon="6.27817">
        <ele>408.7</ele>
        <time>2018-01-30T14:05:29Z</time>
      </trkpt>
      <trkpt lat="43.55103" lon="6.2783">
        <ele>409.6</ele>
        <time>2018-01-30T14:05:37Z</time>
      </trkpt>
      <trkpt lat="43.551" lon="6.27843">
        <ele>410.3</ele>
        <time>2018-01-30T14:05:45Z</time>
      </trkpt>
      <trkpt lat="43.55102" lon="6.27855">
        <ele>410.9</ele>
        <time>2018-01-30T14:05:52Z</time>
      </trkpt>
      <trkpt lat="43.551" lon="6.27868">
        <ele>411.3</ele>
        <time>2018-01-30T14:05:59Z</time>
      </trkpt>
      <trkpt lat="43.55097" lon="6.2788">
        <ele>411.8</ele>
        <time>2018-01-30T14:06:06Z</time>
      </trkpt>
      <trkpt lat="43.55096" lon="6.27892">
        <ele>412.3</ele>
        <time>2018-01-30T14:06:12Z</time>
      </trkpt>
      <trkpt lat="43.55096" lon="6.27905">
        <ele>412.9</ele>
        <time>2018-01-30T14:06:18Z</time>
      </trkpt>
      <trkpt lat="43.55096" lon="6.27919">
        <ele>413.4</ele>
        <time>2018-01-30T14:06:25Z</time>
      </trkpt>
      <trkpt lat="43.55096" lon="6.27933">
        <ele>414.1</ele>
        <time>2018-01-30T14:06:32Z</time>
      </trkpt>
      <trkpt lat="43.55096" lon="6.27946">
        <ele>414.8</ele>
        <time>2018-01-30T14:06:40Z</time>
      </trkpt>
      <trkpt lat="43.55094" lon="6.2796">
        <ele>415.6</ele>
        <time>2018-01-30T14:06:50Z</time>
      </trkpt>
      <trkpt lat="43.55095" lon="6.27974">
        <ele>416.3</ele>
        <time>2018-01-30T14:06:58Z</time>
      </trkpt>
      <trkpt lat="43.55094" lon="6.27989">
        <ele>416.8</ele>
        <time>2018-01-30T14:07:05Z</time>
      </trkpt>
      <trkpt lat="43.55094" lon="6.28003">
        <ele>417.4</ele>
        <time>2018-01-30T14:07:12Z</time>
      </trkpt>
      <trkpt lat="43.55092" lon="6.28015">
        <ele>417.7</ele>
        <time>2018-01-30T14:07:18Z</time>
      </trkpt>
      <trkpt lat="43.5509" lon="6.28028">
        <ele>418.2</ele>
        <time>2018-01-30T14:07:25Z</time>
      </trkpt>
      <trkpt lat="43.5509" lon="6.28041">
        <ele>418.2</ele>
        <time>2018-01-30T14:07:32Z</time>
      </trkpt>
      <trkpt lat="43.55088" lon="6.28054">
        <ele>418.3</ele>
        <time>2018-01-30T14:07:39Z</time>
      </trkpt>
      <trkpt lat="43.55089" lon="6.28067">
        <ele>418.6</ele>
        <time>2018-01-30T14:07:47Z</time>
      </trkpt>
      <trkpt lat="43.5509" lon="6.2808">
        <ele>419.1</ele>
        <time>2018-01-30T14:07:54Z</time>
      </trkpt>
      <trkpt lat="43.5509" lon="6.28094">
        <ele>419.1</ele>
        <time>2018-01-30T14:08:00Z</time>
      </trkpt>
      <trkpt lat="43.55091" lon="6.28108">
        <ele>419.4</ele>
        <time>2018-01-30T14:08:06Z</time>
      </trkpt>
      <trkpt lat="43.5509" lon="6.28121">
        <ele>419.6</ele>
        <time>2018-01-30T14:08:12Z</time>
      </trkpt>
      <trkpt lat="43.5509" lon="6.28135">
        <ele>419.6</ele>
        <time>2018-01-30T14:08:19Z</time>
      </trkpt>
      <trkpt lat="43.55088" lon="6.28148">
        <ele>419.7</ele>
        <time>2018-01-30T14:08:25Z</time>
      </trkpt>
      <trkpt lat="43.55085" lon="6.2816">
        <ele>419.8</ele>
        <time>2018-01-30T14:08:31Z</time>
      </trkpt>
      <trkpt lat="43.5508" lon="6.28171">
        <ele>420.2</ele>
        <time>2018-01-30T14:08:37Z</time>
      </trkpt>
      <trkpt lat="43.55078" lon="6.28184">
        <ele>420.2</ele>
        <time>2018-01-30T14:08:44Z</time>
      </trkpt>
      <trkpt lat="43.55079" lon="6.28198">
        <ele>420.2</ele>
        <time>2018-01-30T14:08:50Z</time>
      </trkpt>
      <trkpt lat="43.55077" lon="6.28213">
        <ele>420.3</ele>
        <time>2018-01-30T14:08:56Z</time>
      </trkpt>
      <trkpt lat="43.55076" lon="6.28225">
        <ele>419.8</ele>
        <time>2018-01-30T14:09:01Z</time>
      </trkpt>
      <trkpt lat="43.55074" lon="6.28239">
        <ele>419.8</ele>
        <time>2018-01-30T14:09:07Z</time>
      </trkpt>
      <trkpt lat="43.55071" lon="6.28252">
        <ele>419.6</ele>
        <time>2018-01-30T14:09:15Z</time>
      </trkpt>
      <trkpt lat="43.55068" lon="6.28264">
        <ele>419.2</ele>
        <time>2018-01-30T14:09:23Z</time>
      </trkpt>
      <trkpt lat="43.55065" lon="6.28277">
        <ele>419.5</ele>
        <time>2018-01-30T14:09:31Z</time>
      </trkpt>
      <trkpt lat="43.55063" lon="6.2829">
        <ele>419.6</ele>
        <time>2018-01-30T14:09:38Z</time>
      </trkpt>
      <trkpt lat="43.55061" lon="6.28302">
        <ele>419.5</ele>
        <time>2018-01-30T14:09:46Z</time>
      </trkpt>
      <trkpt lat="43.55061" lon="6.28315">
        <ele>419.4</ele>
        <time>2018-01-30T14:09:52Z</time>
      </trkpt>
      <trkpt lat="43.55059" lon="6.28328">
        <ele>419.2</ele>
        <time>2018-01-30T14:09:58Z</time>
      </trkpt>
      <trkpt lat="43.5506" lon="6.28341">
        <ele>419.4</ele>
        <time>2018-01-30T14:10:04Z</time>
      </trkpt>
      <trkpt lat="43.55063" lon="6.28354">
        <ele>419.7</ele>
        <time>2018-01-30T14:10:10Z</time>
      </trkpt>
      <trkpt lat="43.55067" lon="6.28366">
        <ele>420</ele>
        <time>2018-01-30T14:10:16Z</time>
      </trkpt>
      <trkpt lat="43.5507" lon="6.28379">
        <ele>419.8</ele>
        <time>2018-01-30T14:10:23Z</time>
      </trkpt>
      <trkpt lat="43.55072" lon="6.28392">
        <ele>419.7</ele>
        <time>2018-01-30T14:10:29Z</time>
      </trkpt>
      <trkpt lat="43.55074" lon="6.28405">
        <ele>419.8</ele>
        <time>2018-01-30T14:10:35Z</time>
      </trkpt>
      <trkpt lat="43.55076" lon="6.28418">
        <ele>419.9</ele>
        <time>2018-01-30T14:10:41Z</time>
      </trkpt>
      <trkpt lat="43.55075" lon="6.28431">
        <ele>420</ele>
        <time>2018-01-30T14:10:48Z</time>
      </trkpt>
      <trkpt lat="43.55074" lon="6.28445">
        <ele>420.1</ele>
        <time>2018-01-30T14:10:56Z</time>
      </trkpt>
      <trkpt lat="43.55074" lon="6.28459">
        <ele>419.8</ele>
        <time>2018-01-30T14:11:04Z</time>
      </trkpt>
      <trkpt lat="43.55073" lon="6.28472">
        <ele>420.3</ele>
        <time>2018-01-30T14:11:13Z</time>
      </trkpt>
      <trkpt lat="43.5507" lon="6.28484">
        <ele>420.5</ele>
        <time>2018-01-30T14:11:22Z</time>
      </trkpt>
      <trkpt lat="43.55071" lon="6.28498">
        <ele>420.4</ele>
        <time>2018-01-30T14:11:30Z</time>
      </trkpt>
      <trkpt lat="43.55069" lon="6.28512">
        <ele>420.6</ele>
        <time>2018-01-30T14:11:38Z</time>
      </trkpt>
      <trkpt lat="43.55066" lon="6.28525">
        <ele>420.7</ele>
        <time>2018-01-30T14:11:45Z</time>
      </trkpt>
      <trkpt lat="43.55063" lon="6.28538">
        <ele>420.1</ele>
        <time>2018-01-30T14:11:52Z</time>
      </trkpt>
      <trkpt lat="43.55058" lon="6.2855">
        <ele>420.4</ele>
        <time>2018-01-30T14:11:59Z</time>
      </trkpt>
      <trkpt lat="43.55051" lon="6.2856">
        <ele>420.8</ele>
        <time>2018-01-30T14:12:06Z</time>
      </trkpt>
      <trkpt lat="43.55044" lon="6.28571">
        <ele>421.2</ele>
        <time>2018-01-30T14:12:13Z</time>
      </trkpt>
      <trkpt lat="43.55038" lon="6.28581">
        <ele>421.4</ele>
        <time>2018-01-30T14:12:19Z</time>
      </trkpt>
      <trkpt lat="43.55032" lon="6.28591">
        <ele>421.6</ele>
        <time>2018-01-30T14:12:26Z</time>
      </trkpt>
      <trkpt lat="43.55023" lon="6.28598">
        <ele>421.9</ele>
        <time>2018-01-30T14:12:33Z</time>
      </trkpt>
      <trkpt lat="43.5502" lon="6.28611">
        <ele>421.8</ele>
        <time>2018-01-30T14:12:40Z</time>
      </trkpt>
      <trkpt lat="43.55015" lon="6.28622">
        <ele>421.9</ele>
        <time>2018-01-30T14:12:47Z</time>
      </trkpt>
      <trkpt lat="43.55012" lon="6.28635">
        <ele>421.8</ele>
        <time>2018-01-30T14:12:58Z</time>
      </trkpt>
      <trkpt lat="43.55006" lon="6.28645">
        <ele>421.9</ele>
        <time>2018-01-30T14:13:07Z</time>
      </trkpt>
      <trkpt lat="43.55" lon="6.28655">
        <ele>421.8</ele>
        <time>2018-01-30T14:13:13Z</time>
      </trkpt>
      <trkpt lat="43.54993" lon="6.28664">
        <ele>422</ele>
        <time>2018-01-30T14:13:19Z</time>
      </trkpt>
      <trkpt lat="43.54987" lon="6.28674">
        <ele>422.2</ele>
        <time>2018-01-30T14:13:26Z</time>
      </trkpt>
      <trkpt lat="43.54983" lon="6.28686">
        <ele>421.9</ele>
        <time>2018-01-30T14:13:33Z</time>
      </trkpt>
      <trkpt lat="43.54978" lon="6.28698">
        <ele>421.7</ele>
        <time>2018-01-30T14:13:39Z</time>
      </trkpt>
      <trkpt lat="43.54974" lon="6.2871">
        <ele>421.9</ele>
        <time>2018-01-30T14:13:46Z</time>
      </trkpt>
      <trkpt lat="43.54969" lon="6.28721">
        <ele>422.5</ele>
        <time>2018-01-30T14:13:53Z</time>
      </trkpt>
      <trkpt lat="43.54964" lon="6.28733">
        <ele>422.8</ele>
        <time>2018-01-30T14:14:00Z</time>
      </trkpt>
      <trkpt lat="43.54959" lon="6.28744">
        <ele>422.9</ele>
        <time>2018-01-30T14:14:07Z</time>
      </trkpt>
      <trkpt lat="43.54951" lon="6.28751">
        <ele>423.2</ele>
        <time>2018-01-30T14:14:14Z</time>
      </trkpt>
      <trkpt lat="43.54944" lon="6.2876">
        <ele>423</ele>
        <time>2018-01-30T14:14:21Z</time>
      </trkpt>
      <trkpt lat="43.54939" lon="6.28771">
        <ele>422.9</ele>
        <time>2018-01-30T14:14:29Z</time>
      </trkpt>
      <trkpt lat="43.54935" lon="6.28782">
        <ele>422.8</ele>
        <time>2018-01-30T14:14:36Z</time>
      </trkpt>
      <trkpt lat="43.54929" lon="6.28792">
        <ele>422.9</ele>
        <time>2018-01-30T14:14:42Z</time>
      </trkpt>
      <trkpt lat="43.54922" lon="6.28802">
        <ele>422.9</ele>
        <time>2018-01-30T14:14:49Z</time>
      </trkpt>
      <trkpt lat="43.54918" lon="6.28815">
        <ele>422.9</ele>
        <time>2018-01-30T14:14:56Z</time>
      </trkpt>
      <trkpt lat="43.54913" lon="6.28825">
        <ele>423.3</ele>
        <time>2018-01-30T14:15:02Z</time>
      </trkpt>
      <trkpt lat="43.54908" lon="6.28837">
        <ele>423.6</ele>
        <time>2018-01-30T14:15:08Z</time>
      </trkpt>
      <trkpt lat="43.54902" lon="6.28848">
        <ele>424</ele>
        <time>2018-01-30T14:15:14Z</time>
      </trkpt>
      <trkpt lat="43.54896" lon="6.28859">
        <ele>424.2</ele>
        <time>2018-01-30T14:15:20Z</time>
      </trkpt>
      <trkpt lat="43.54891" lon="6.28871">
        <ele>424.3</ele>
        <time>2018-01-30T14:15:26Z</time>
      </trkpt>
      <trkpt lat="43.54886" lon="6.28883">
        <ele>424.4</ele>
        <time>2018-01-30T14:15:32Z</time>
      </trkpt>
      <trkpt lat="43.54881" lon="6.28894">
        <ele>424.9</ele>
        <time>2018-01-30T14:15:40Z</time>
      </trkpt>
      <trkpt lat="43.54876" lon="6.28906">
        <ele>424.7</ele>
        <time>2018-01-30T14:15:47Z</time>
      </trkpt>
      <trkpt lat="43.54871" lon="6.28916">
        <ele>424.8</ele>
        <time>2018-01-30T14:15:54Z</time>
      </trkpt>
      <trkpt lat="43.54865" lon="6.28926">
        <ele>425.2</ele>
        <time>2018-01-30T14:16:00Z</time>
      </trkpt>
      <trkpt lat="43.54858" lon="6.28936">
        <ele>425.1</ele>
        <time>2018-01-30T14:16:07Z</time>
      </trkpt>
      <trkpt lat="43.5485" lon="6.28944">
        <ele>425.2</ele>
        <time>2018-01-30T14:16:13Z</time>
      </trkpt>
      <trkpt lat="43.54843" lon="6.28953">
        <ele>425</ele>
        <time>2018-01-30T14:16:20Z</time>
      </trkpt>
      <trkpt lat="43.54837" lon="6.28962">
        <ele>424.8</ele>
        <time>2018-01-30T14:16:27Z</time>
      </trkpt>
      <trkpt lat="43.54829" lon="6.28972">
        <ele>424.8</ele>
        <time>2018-01-30T14:16:34Z</time>
      </trkpt>
      <trkpt lat="43.54821" lon="6.28981">
        <ele>424.3</ele>
        <time>2018-01-30T14:16:41Z</time>
      </trkpt>
      <trkpt lat="43.54814" lon="6.28991">
        <ele>423.9</ele>
        <time>2018-01-30T14:16:49Z</time>
      </trkpt>
      <trkpt lat="43.54808" lon="6.29">
        <ele>423.7</ele>
        <time>2018-01-30T14:16:57Z</time>
      </trkpt>
      <trkpt lat="43.548" lon="6.29009">
        <ele>424</ele>
        <time>2018-01-30T14:17:05Z</time>
      </trkpt>
      <trkpt lat="43.54792" lon="6.29017">
        <ele>424.1</ele>
        <time>2018-01-30T14:17:12Z</time>
      </trkpt>
      <trkpt lat="43.54785" lon="6.29026">
        <ele>423.9</ele>
        <time>2018-01-30T14:17:20Z</time>
      </trkpt>
      <trkpt lat="43.54777" lon="6.29034">
        <ele>423.8</ele>
        <time>2018-01-30T14:17:26Z</time>
      </trkpt>
      <trkpt lat="43.5477" lon="6.29042">
        <ele>423.5</ele>
        <time>2018-01-30T14:17:32Z</time>
      </trkpt>
      <trkpt lat="43.54763" lon="6.29051">
        <ele>423.6</ele>
        <time>2018-01-30T14:17:40Z</time>
      </trkpt>
      <trkpt lat="43.54757" lon="6.2906">
        <ele>423.6</ele>
        <time>2018-01-30T14:17:48Z</time>
      </trkpt>
      <trkpt lat="43.54751" lon="6.29071">
        <ele>423.3</ele>
        <time>2018-01-30T14:17:55Z</time>
      </trkpt>
      <trkpt lat="43.54745" lon="6.29083">
        <ele>423.2</ele>
        <time>2018-01-30T14:18:02Z</time>
      </trkpt>
      <trkpt lat="43.54739" lon="6.29093">
        <ele>422.8</ele>
        <time>2018-01-30T14:18:10Z</time>
      </trkpt>
      <trkpt lat="43.54734" lon="6.29104">
        <ele>422.5</ele>
        <time>2018-01-30T14:18:16Z</time>
      </trkpt>
      <trkpt lat="43.54727" lon="6.29115">
        <ele>421.7</ele>
        <time>2018-01-30T14:18:23Z</time>
      </trkpt>
      <trkpt lat="43.54722" lon="6.29125">
        <ele>421.5</ele>
        <time>2018-01-30T14:18:31Z</time>
      </trkpt>
      <trkpt lat="43.54717" lon="6.29136">
        <ele>421.7</ele>
        <time>2018-01-30T14:18:39Z</time>
      </trkpt>
      <trkpt lat="43.54711" lon="6.29146">
        <ele>421.5</ele>
        <time>2018-01-30T14:18:45Z</time>
      </trkpt>
      <trkpt lat="43.54704" lon="6.29157">
        <ele>420.7</ele>
        <time>2018-01-30T14:18:52Z</time>
      </trkpt>
      <trkpt lat="43.54699" lon="6.29167">
        <ele>420</ele>
        <time>2018-01-30T14:18:59Z</time>
      </trkpt>
      <trkpt lat="43.54697" lon="6.29179">
        <ele>419.6</ele>
        <time>2018-01-30T14:19:09Z</time>
      </trkpt>
      <trkpt lat="43.54707" lon="6.29183">
        <ele>419</ele>
        <time>2018-01-30T14:19:18Z</time>
      </trkpt>
      <trkpt lat="43.54715" lon="6.29191">
        <ele>417.8</ele>
        <time>2018-01-30T14:19:27Z</time>
      </trkpt>
      <trkpt lat="43.5472" lon="6.29203">
        <ele>416.9</ele>
        <time>2018-01-30T14:19:34Z</time>
      </trkpt>
      <trkpt lat="43.54725" lon="6.29214">
        <ele>416.5</ele>
        <time>2018-01-30T14:19:40Z</time>
      </trkpt>
      <trkpt lat="43.5473" lon="6.29227">
        <ele>416.3</ele>
        <time>2018-01-30T14:19:46Z</time>
      </trkpt>
      <trkpt lat="43.54732" lon="6.29239">
        <ele>416.6</ele>
        <time>2018-01-30T14:19:52Z</time>
      </trkpt>
      <trkpt lat="43.54734" lon="6.29251">
        <ele>417</ele>
        <time>2018-01-30T14:19:59Z</time>
      </trkpt>
      <trkpt lat="43.54733" lon="6.29265">
        <ele>417.1</ele>
        <time>2018-01-30T14:20:06Z</time>
      </trkpt>
      <trkpt lat="43.5473" lon="6.29278">
        <ele>416.4</ele>
        <time>2018-01-30T14:20:13Z</time>
      </trkpt>
      <trkpt lat="43.54727" lon="6.2929">
        <ele>416.1</ele>
        <time>2018-01-30T14:20:19Z</time>
      </trkpt>
      <trkpt lat="43.54724" lon="6.29302">
        <ele>416.3</ele>
        <time>2018-01-30T14:20:26Z</time>
      </trkpt>
      <trkpt lat="43.54722" lon="6.29315">
        <ele>416</ele>
        <time>2018-01-30T14:20:33Z</time>
      </trkpt>
      <trkpt lat="43.54722" lon="6.29329">
        <ele>416</ele>
        <time>2018-01-30T14:20:41Z</time>
      </trkpt>
      <trkpt lat="43.5472" lon="6.29342">
        <ele>416.1</ele>
        <time>2018-01-30T14:20:49Z</time>
      </trkpt>
      <trkpt lat="43.54716" lon="6.29354">
        <ele>416.8</ele>
        <time>2018-01-30T14:20:57Z</time>
      </trkpt>
      <trkpt lat="43.54712" lon="6.29365">
        <ele>417</ele>
        <time>2018-01-30T14:21:04Z</time>
      </trkpt>
      <trkpt lat="43.54705" lon="6.29375">
        <ele>416.8</ele>
        <time>2018-01-30T14:21:11Z</time>
      </trkpt>
      <trkpt lat="43.54699" lon="6.29385">
        <ele>416.5</ele>
        <time>2018-01-30T14:21:16Z</time>
      </trkpt>
      <trkpt lat="43.54692" lon="6.29395">
        <ele>416</ele>
        <time>2018-01-30T14:21:22Z</time>
      </trkpt>
      <trkpt lat="43.54687" lon="6.29405">
        <ele>415.6</ele>
        <time>2018-01-30T14:21:28Z</time>
      </trkpt>
      <trkpt lat="43.54681" lon="6.29414">
        <ele>414.9</ele>
        <time>2018-01-30T14:21:35Z</time>
      </trkpt>
      <trkpt lat="43.54675" lon="6.29425">
        <ele>414.4</ele>
        <time>2018-01-30T14:21:42Z</time>
      </trkpt>
      <trkpt lat="43.54669" lon="6.29436">
        <ele>414</ele>
        <time>2018-01-30T14:21:50Z</time>
      </trkpt>
      <trkpt lat="43.54662" lon="6.29446">
        <ele>413.8</ele>
        <time>2018-01-30T14:21:58Z</time>
      </trkpt>
      <trkpt lat="43.54656" lon="6.29456">
        <ele>413.8</ele>
        <time>2018-01-30T14:22:05Z</time>
      </trkpt>
      <trkpt lat="43.54649" lon="6.29466">
        <ele>413.3</ele>
        <time>2018-01-30T14:22:13Z</time>
      </trkpt>
      <trkpt lat="43.54642" lon="6.29475">
        <ele>413.1</ele>
        <time>2018-01-30T14:22:20Z</time>
      </trkpt>
      <trkpt lat="43.54634" lon="6.29482">
        <ele>412.4</ele>
        <time>2018-01-30T14:22:26Z</time>
      </trkpt>
      <trkpt lat="43.5463" lon="6.29495">
        <ele>411.8</ele>
        <time>2018-01-30T14:22:33Z</time>
      </trkpt>
      <trkpt lat="43.54624" lon="6.29506">
        <ele>412</ele>
        <time>2018-01-30T14:22:41Z</time>
      </trkpt>
      <trkpt lat="43.54619" lon="6.29518">
        <ele>411.6</ele>
        <time>2018-01-30T14:22:49Z</time>
      </trkpt>
      <trkpt lat="43.54618" lon="6.29531">
        <ele>411.4</ele>
        <time>2018-01-30T14:22:55Z</time>
      </trkpt>
      <trkpt lat="43.54619" lon="6.29546">
        <ele>410.8</ele>
        <time>2018-01-30T14:23:01Z</time>
      </trkpt>
      <trkpt lat="43.54619" lon="6.29559">
        <ele>411.1</ele>
        <time>2018-01-30T14:23:07Z</time>
      </trkpt>
      <trkpt lat="43.54619" lon="6.29572">
        <ele>411.3</ele>
        <time>2018-01-30T14:23:14Z</time>
      </trkpt>
      <trkpt lat="43.54619" lon="6.29585">
        <ele>410.9</ele>
        <time>2018-01-30T14:23:20Z</time>
      </trkpt>
      <trkpt lat="43.54621" lon="6.29597">
        <ele>410.8</ele>
        <time>2018-01-30T14:23:25Z</time>
      </trkpt>
      <trkpt lat="43.54619" lon="6.29611">
        <ele>411</ele>
        <time>2018-01-30T14:23:31Z</time>
      </trkpt>
      <trkpt lat="43.54617" lon="6.29623">
        <ele>411</ele>
        <time>2018-01-30T14:23:37Z</time>
      </trkpt>
      <trkpt lat="43.54615" lon="6.29636">
        <ele>410.9</ele>
        <time>2018-01-30T14:23:45Z</time>
      </trkpt>
      <trkpt lat="43.54612" lon="6.29648">
        <ele>411.2</ele>
        <time>2018-01-30T14:23:52Z</time>
      </trkpt>
      <trkpt lat="43.54609" lon="6.2966">
        <ele>411.5</ele>
        <time>2018-01-30T14:23:59Z</time>
      </trkpt>
      <trkpt lat="43.54602" lon="6.2967">
        <ele>411.9</ele>
        <time>2018-01-30T14:24:08Z</time>
      </trkpt>
      <trkpt lat="43.54595" lon="6.29678">
        <ele>412.2</ele>
        <time>2018-01-30T14:24:15Z</time>
      </trkpt>
      <trkpt lat="43.54588" lon="6.29688">
        <ele>412.7</ele>
        <time>2018-01-30T14:24:24Z</time>
      </trkpt>
      <trkpt lat="43.5458" lon="6.29696">
        <ele>413.2</ele>
        <time>2018-01-30T14:24:31Z</time>
      </trkpt>
      <trkpt lat="43.54572" lon="6.29701">
        <ele>413.3</ele>
        <time>2018-01-30T14:24:37Z</time>
      </trkpt>
      <trkpt lat="43.54563" lon="6.29707">
        <ele>413.6</ele>
        <time>2018-01-30T14:24:43Z</time>
      </trkpt>
      <trkpt lat="43.54554" lon="6.29713">
        <ele>413.8</ele>
        <time>2018-01-30T14:24:49Z</time>
      </trkpt>
      <trkpt lat="43.54544" lon="6.29718">
        <ele>413.8</ele>
        <time>2018-01-30T14:24:55Z</time>
      </trkpt>
      <trkpt lat="43.54536" lon="6.29723">
        <ele>413.5</ele>
        <time>2018-01-30T14:25:01Z</time>
      </trkpt>
      <trkpt lat="43.54527" lon="6.29728">
        <ele>413.7</ele>
        <time>2018-01-30T14:25:07Z</time>
      </trkpt>
      <trkpt lat="43.54518" lon="6.29732">
        <ele>413.8</ele>
        <time>2018-01-30T14:25:13Z</time>
      </trkpt>
      <trkpt lat="43.54508" lon="6.29737">
        <ele>413.7</ele>
        <time>2018-01-30T14:25:20Z</time>
      </trkpt>
      <trkpt lat="43.54499" lon="6.29744">
        <ele>413.6</ele>
        <time>2018-01-30T14:25:27Z</time>
      </trkpt>
      <trkpt lat="43.54492" lon="6.29753">
        <ele>413.9</ele>
        <time>2018-01-30T14:25:34Z</time>
      </trkpt>
      <trkpt lat="43.54485" lon="6.29763">
        <ele>414</ele>
        <time>2018-01-30T14:25:41Z</time>
      </trkpt>
      <trkpt lat="43.54479" lon="6.29774">
        <ele>414</ele>
        <time>2018-01-30T14:25:48Z</time>
      </trkpt>
      <trkpt lat="43.54474" lon="6.29785">
        <ele>414</ele>
        <time>2018-01-30T14:25:55Z</time>
      </trkpt>
      <trkpt lat="43.54468" lon="6.29797">
        <ele>413.7</ele>
        <time>2018-01-30T14:26:04Z</time>
      </trkpt>
      <trkpt lat="43.54463" lon="6.29808">
        <ele>413.5</ele>
        <time>2018-01-30T14:26:11Z</time>
      </trkpt>
      <trkpt lat="43.54457" lon="6.29819">
        <ele>413.5</ele>
        <time>2018-01-30T14:26:18Z</time>
      </trkpt>
      <trkpt lat="43.54452" lon="6.29829">
        <ele>413.4</ele>
        <time>2018-01-30T14:26:24Z</time>
      </trkpt>
      <trkpt lat="43.54447" lon="6.29841">
        <ele>413.8</ele>
        <time>2018-01-30T14:26:31Z</time>
      </trkpt>
      <trkpt lat="43.54442" lon="6.29852">
        <ele>413.5</ele>
        <time>2018-01-30T14:26:38Z</time>
      </trkpt>
      <trkpt lat="43.54438" lon="6.29865">
        <ele>413.2</ele>
        <time>2018-01-30T14:26:46Z</time>
      </trkpt>
      <trkpt lat="43.54432" lon="6.29877">
        <ele>413.2</ele>
        <time>2018-01-30T14:26:54Z</time>
      </trkpt>
      <trkpt lat="43.54427" lon="6.29887">
        <ele>413.1</ele>
        <time>2018-01-30T14:27:00Z</time>
      </trkpt>
      <trkpt lat="43.54421" lon="6.29899">
        <ele>412.8</ele>
        <time>2018-01-30T14:27:07Z</time>
      </trkpt>
      <trkpt lat="43.54415" lon="6.29909">
        <ele>412.8</ele>
        <time>2018-01-30T14:27:14Z</time>
      </trkpt>
      <trkpt lat="43.54408" lon="6.29919">
        <ele>412.6</ele>
        <time>2018-01-30T14:27:21Z</time>
      </trkpt>
      <trkpt lat="43.54401" lon="6.29928">
        <ele>412.3</ele>
        <time>2018-01-30T14:27:27Z</time>
      </trkpt>
      <trkpt lat="43.54394" lon="6.29936">
        <ele>412.1</ele>
        <time>2018-01-30T14:27:33Z</time>
      </trkpt>
      <trkpt lat="43.54387" lon="6.29945">
        <ele>412</ele>
        <time>2018-01-30T14:27:39Z</time>
      </trkpt>
      <trkpt lat="43.5438" lon="6.29953">
        <ele>411.9</ele>
        <time>2018-01-30T14:27:45Z</time>
      </trkpt>
      <trkpt lat="43.54372" lon="6.29963">
        <ele>411.9</ele>
        <time>2018-01-30T14:27:52Z</time>
      </trkpt>
      <trkpt lat="43.54364" lon="6.29972">
        <ele>411.9</ele>
        <time>2018-01-30T14:27:59Z</time>
      </trkpt>
      <trkpt lat="43.54356" lon="6.2998">
        <ele>411.5</ele>
        <time>2018-01-30T14:28:06Z</time>
      </trkpt>
      <trkpt lat="43.54348" lon="6.29987">
        <ele>411.5</ele>
        <time>2018-01-30T14:28:13Z</time>
      </trkpt>
      <trkpt lat="43.5434" lon="6.29994">
        <ele>411.5</ele>
        <time>2018-01-30T14:28:20Z</time>
      </trkpt>
      <trkpt lat="43.54334" lon="6.30004">
        <ele>411.5</ele>
        <time>2018-01-30T14:28:27Z</time>
      </trkpt>
      <trkpt lat="43.54326" lon="6.30011">
        <ele>411.2</ele>
        <time>2018-01-30T14:28:56Z</time>
      </trkpt>
      <trkpt lat="43.54326" lon="6.30012">
        <ele>411.2</ele>
        <time>2018-01-30T14:29:02Z</time>
      </trkpt>
    </trkseg>
  </trk>
</gpx>